<?xml version="1.0" encoding="UTF-8" standalone="no" ?>
<gpx xmlns="http://www.topografix.com/GPX/1/1" xmlns:xsi="http://www.w3.org/2001/XMLSchema-instance" xsi:schemaLocation="http://www.topografix.com/GPX/1/1 http://www.topografix.com/GPX/1/1/gpx.xsd" version="1.1" creator="VisuGPX - https://www.visugpx.com">
  <metadata>
    <name>2010 Randonnée 3° Age</name>
  </metadata>
  <trk>
    <name><![CDATA[et 3]]></name>
    <trkseg>
      <trkpt lat="44.18847" lon="3.20863">
        <ele>436</ele>
      </trkpt>
      <trkpt lat="44.18845" lon="3.20795">
        <ele>442</ele>
      </trkpt>
      <trkpt lat="44.18811" lon="3.20753">
        <ele>437</ele>
      </trkpt>
      <trkpt lat="44.18789" lon="3.20835">
        <ele>438</ele>
      </trkpt>
      <trkpt lat="44.18747" lon="3.20944">
        <ele>436</ele>
      </trkpt>
      <trkpt lat="44.18772" lon="3.21041">
        <ele>428</ele>
      </trkpt>
      <trkpt lat="44.18735" lon="3.21112">
        <ele>431</ele>
      </trkpt>
      <trkpt lat="44.18674" lon="3.21152">
        <ele>433</ele>
      </trkpt>
      <trkpt lat="44.18691" lon="3.21023">
        <ele>444</ele>
      </trkpt>
      <trkpt lat="44.18657" lon="3.20935">
        <ele>457</ele>
      </trkpt>
      <trkpt lat="44.1867" lon="3.20844">
        <ele>456</ele>
      </trkpt>
      <trkpt lat="44.18658" lon="3.20803">
        <ele>463</ele>
      </trkpt>
      <trkpt lat="44.18658" lon="3.20746">
        <ele>468</ele>
      </trkpt>
      <trkpt lat="44.18678" lon="3.20711">
        <ele>462</ele>
      </trkpt>
      <trkpt lat="44.18667" lon="3.20696">
        <ele>468</ele>
      </trkpt>
      <trkpt lat="44.18669" lon="3.20658">
        <ele>471</ele>
      </trkpt>
      <trkpt lat="44.1865" lon="3.20613">
        <ele>481</ele>
      </trkpt>
      <trkpt lat="44.18537" lon="3.20564">
        <ele>518</ele>
      </trkpt>
      <trkpt lat="44.18494" lon="3.20532">
        <ele>529</ele>
      </trkpt>
      <trkpt lat="44.18456" lon="3.20488">
        <ele>534</ele>
      </trkpt>
      <trkpt lat="44.18402" lon="3.20468">
        <ele>550</ele>
      </trkpt>
      <trkpt lat="44.18364" lon="3.20457">
        <ele>559</ele>
      </trkpt>
      <trkpt lat="44.18354" lon="3.20482">
        <ele>573</ele>
      </trkpt>
      <trkpt lat="44.18424" lon="3.20522">
        <ele>559</ele>
      </trkpt>
      <trkpt lat="44.18435" lon="3.20569">
        <ele>567</ele>
      </trkpt>
      <trkpt lat="44.18468" lon="3.20644">
        <ele>574</ele>
      </trkpt>
      <trkpt lat="44.18431" lon="3.20614">
        <ele>582</ele>
      </trkpt>
      <trkpt lat="44.18415" lon="3.20562">
        <ele>575</ele>
      </trkpt>
      <trkpt lat="44.18387" lon="3.20532">
        <ele>580</ele>
      </trkpt>
      <trkpt lat="44.18331" lon="3.20514">
        <ele>593</ele>
      </trkpt>
      <trkpt lat="44.18285" lon="3.20512">
        <ele>604</ele>
      </trkpt>
      <trkpt lat="44.18235" lon="3.20508">
        <ele>612</ele>
      </trkpt>
      <trkpt lat="44.18141" lon="3.20477">
        <ele>617</ele>
      </trkpt>
      <trkpt lat="44.18114" lon="3.2047">
        <ele>622</ele>
      </trkpt>
      <trkpt lat="44.18065" lon="3.20404">
        <ele>613</ele>
      </trkpt>
      <trkpt lat="44.18035" lon="3.20395">
        <ele>623</ele>
      </trkpt>
      <trkpt lat="44.17968" lon="3.20407">
        <ele>643</ele>
      </trkpt>
      <trkpt lat="44.17937" lon="3.20406">
        <ele>644</ele>
      </trkpt>
      <trkpt lat="44.17897" lon="3.20462">
        <ele>663</ele>
      </trkpt>
      <trkpt lat="44.17863" lon="3.20469">
        <ele>661</ele>
      </trkpt>
      <trkpt lat="44.17875" lon="3.20509">
        <ele>673</ele>
      </trkpt>
      <trkpt lat="44.17867" lon="3.20529">
        <ele>677</ele>
      </trkpt>
      <trkpt lat="44.17825" lon="3.20545">
        <ele>672</ele>
      </trkpt>
      <trkpt lat="44.17794" lon="3.20598">
        <ele>674</ele>
      </trkpt>
      <trkpt lat="44.1779" lon="3.20632">
        <ele>676</ele>
      </trkpt>
      <trkpt lat="44.17809" lon="3.20698">
        <ele>688</ele>
      </trkpt>
      <trkpt lat="44.17783" lon="3.20741">
        <ele>692</ele>
      </trkpt>
      <trkpt lat="44.1778" lon="3.20782">
        <ele>699</ele>
      </trkpt>
      <trkpt lat="44.17772" lon="3.2084">
        <ele>710</ele>
      </trkpt>
      <trkpt lat="44.1775" lon="3.2085">
        <ele>709</ele>
        <time>2009-07-08T13:17:24Z</time>
      </trkpt>
      <trkpt lat="44.17719" lon="3.20878">
        <ele>712</ele>
        <time>2009-07-08T13:17:41Z</time>
      </trkpt>
      <trkpt lat="44.1768" lon="3.20921">
        <ele>714</ele>
        <time>2009-07-08T13:18:04Z</time>
      </trkpt>
      <trkpt lat="44.17666" lon="3.20927">
        <ele>715</ele>
        <time>2009-07-08T13:18:15Z</time>
      </trkpt>
      <trkpt lat="44.17665" lon="3.20929">
        <ele>716</ele>
        <time>2009-07-08T13:18:31Z</time>
      </trkpt>
      <trkpt lat="44.17663" lon="3.20933">
        <ele>716</ele>
        <time>2009-07-08T13:18:37Z</time>
      </trkpt>
      <trkpt lat="44.1766" lon="3.20934">
        <ele>716</ele>
        <time>2009-07-08T13:18:53Z</time>
      </trkpt>
      <trkpt lat="44.17661" lon="3.20935">
        <ele>715</ele>
        <time>2009-07-08T13:22:05Z</time>
      </trkpt>
      <trkpt lat="44.1766" lon="3.20937">
        <ele>716</ele>
        <time>2009-07-08T13:23:33Z</time>
      </trkpt>
      <trkpt lat="44.1766" lon="3.20938">
        <ele>715</ele>
        <time>2009-07-08T13:23:53Z</time>
      </trkpt>
      <trkpt lat="44.17659" lon="3.20938">
        <ele>717</ele>
        <time>2009-07-08T13:25:33Z</time>
      </trkpt>
      <trkpt lat="44.17645" lon="3.2096">
        <ele>721</ele>
        <time>2009-07-08T13:25:45Z</time>
      </trkpt>
      <trkpt lat="44.17644" lon="3.20962">
        <ele>719</ele>
        <time>2009-07-08T13:25:46Z</time>
      </trkpt>
      <trkpt lat="44.17638" lon="3.20976">
        <ele>720</ele>
        <time>2009-07-08T13:25:52Z</time>
      </trkpt>
      <trkpt lat="44.17618" lon="3.21023">
        <ele>722</ele>
        <time>2009-07-08T13:26:11Z</time>
      </trkpt>
      <trkpt lat="44.17593" lon="3.21063">
        <ele>724</ele>
        <time>2009-07-08T13:26:26Z</time>
      </trkpt>
      <trkpt lat="44.17557" lon="3.21105">
        <ele>726</ele>
        <time>2009-07-08T13:26:45Z</time>
      </trkpt>
      <trkpt lat="44.17536" lon="3.2113">
        <ele>728</ele>
        <time>2009-07-08T13:26:56Z</time>
      </trkpt>
      <trkpt lat="44.17528" lon="3.21156">
        <ele>730</ele>
        <time>2009-07-08T13:27:05Z</time>
      </trkpt>
      <trkpt lat="44.17517" lon="3.21161">
        <ele>730</ele>
        <time>2009-07-08T13:27:11Z</time>
      </trkpt>
      <trkpt lat="44.17471" lon="3.21191">
        <ele>728</ele>
        <time>2009-07-08T13:27:28Z</time>
      </trkpt>
      <trkpt lat="44.17434" lon="3.21194">
        <ele>727</ele>
        <time>2009-07-08T13:27:38Z</time>
      </trkpt>
      <trkpt lat="44.17413" lon="3.21205">
        <ele>725</ele>
        <time>2009-07-08T13:27:43Z</time>
      </trkpt>
      <trkpt lat="44.17377" lon="3.21233">
        <ele>724</ele>
        <time>2009-07-08T13:27:55Z</time>
      </trkpt>
      <trkpt lat="44.17375" lon="3.21235">
        <ele>727</ele>
        <time>2009-07-08T13:28:06Z</time>
      </trkpt>
      <trkpt lat="44.17373" lon="3.21234">
        <ele>725</ele>
        <time>2009-07-08T13:28:11Z</time>
      </trkpt>
      <trkpt lat="44.1737" lon="3.21236">
        <ele>725</ele>
        <time>2009-07-08T13:28:21Z</time>
      </trkpt>
      <trkpt lat="44.17357" lon="3.21266">
        <ele>723</ele>
        <time>2009-07-08T13:28:34Z</time>
      </trkpt>
      <trkpt lat="44.17364" lon="3.21322">
        <ele>723</ele>
        <time>2009-07-08T13:28:48Z</time>
      </trkpt>
      <trkpt lat="44.17381" lon="3.21377">
        <ele>723</ele>
        <time>2009-07-08T13:29:02Z</time>
      </trkpt>
      <trkpt lat="44.17387" lon="3.21442">
        <ele>726</ele>
        <time>2009-07-08T13:29:19Z</time>
      </trkpt>
      <trkpt lat="44.17387" lon="3.21444">
        <ele>726</ele>
        <time>2009-07-08T13:29:20Z</time>
      </trkpt>
      <trkpt lat="44.17384" lon="3.21455">
        <ele>727</ele>
        <time>2009-07-08T13:29:24Z</time>
      </trkpt>
      <trkpt lat="44.17372" lon="3.21475">
        <ele>728</ele>
        <time>2009-07-08T13:29:36Z</time>
      </trkpt>
      <trkpt lat="44.17364" lon="3.21487">
        <ele>728</ele>
        <time>2009-07-08T13:29:48Z</time>
      </trkpt>
      <trkpt lat="44.17362" lon="3.21495">
        <ele>729</ele>
        <time>2009-07-08T13:29:59Z</time>
      </trkpt>
      <trkpt lat="44.17357" lon="3.21506">
        <ele>729</ele>
        <time>2009-07-08T13:30:11Z</time>
      </trkpt>
      <trkpt lat="44.17352" lon="3.21521">
        <ele>732</ele>
        <time>2009-07-08T13:30:18Z</time>
      </trkpt>
      <trkpt lat="44.17331" lon="3.21552">
        <ele>734</ele>
        <time>2009-07-08T13:30:33Z</time>
      </trkpt>
      <trkpt lat="44.17305" lon="3.21563">
        <ele>736</ele>
        <time>2009-07-08T13:30:46Z</time>
      </trkpt>
      <trkpt lat="44.17278" lon="3.21586">
        <ele>738</ele>
        <time>2009-07-08T13:31:02Z</time>
      </trkpt>
      <trkpt lat="44.17256" lon="3.21604">
        <ele>740</ele>
        <time>2009-07-08T13:31:16Z</time>
      </trkpt>
      <trkpt lat="44.17234" lon="3.21622">
        <ele>742</ele>
        <time>2009-07-08T13:31:30Z</time>
      </trkpt>
      <trkpt lat="44.17218" lon="3.21631">
        <ele>743</ele>
        <time>2009-07-08T13:31:40Z</time>
      </trkpt>
      <trkpt lat="44.17208" lon="3.2164">
        <ele>744</ele>
        <time>2009-07-08T13:31:47Z</time>
      </trkpt>
      <trkpt lat="44.1719" lon="3.21646">
        <ele>746</ele>
        <time>2009-07-08T13:31:57Z</time>
      </trkpt>
      <trkpt lat="44.17173" lon="3.21663">
        <ele>748</ele>
        <time>2009-07-08T13:32:09Z</time>
      </trkpt>
      <trkpt lat="44.17167" lon="3.21692">
        <ele>749</ele>
        <time>2009-07-08T13:32:21Z</time>
      </trkpt>
      <trkpt lat="44.17138" lon="3.21697">
        <ele>751</ele>
        <time>2009-07-08T13:32:37Z</time>
      </trkpt>
      <trkpt lat="44.17131" lon="3.21697">
        <ele>752</ele>
        <time>2009-07-08T13:32:41Z</time>
      </trkpt>
      <trkpt lat="44.17106" lon="3.2169">
        <ele>755</ele>
        <time>2009-07-08T13:32:56Z</time>
      </trkpt>
      <trkpt lat="44.17097" lon="3.21693">
        <ele>756</ele>
        <time>2009-07-08T13:33:02Z</time>
      </trkpt>
      <trkpt lat="44.1708" lon="3.21706">
        <ele>757</ele>
        <time>2009-07-08T13:33:15Z</time>
      </trkpt>
      <trkpt lat="44.17079" lon="3.21707">
        <ele>757</ele>
        <time>2009-07-08T13:33:18Z</time>
      </trkpt>
      <trkpt lat="44.17071" lon="3.21717">
        <ele>757</ele>
        <time>2009-07-08T13:33:28Z</time>
      </trkpt>
      <trkpt lat="44.17057" lon="3.21725">
        <ele>758</ele>
        <time>2009-07-08T13:33:36Z</time>
      </trkpt>
      <trkpt lat="44.17053" lon="3.21725">
        <ele>759</ele>
        <time>2009-07-08T13:33:39Z</time>
      </trkpt>
      <trkpt lat="44.17045" lon="3.21728">
        <ele>760</ele>
        <time>2009-07-08T13:33:43Z</time>
      </trkpt>
      <trkpt lat="44.17028" lon="3.21735">
        <ele>762</ele>
        <time>2009-07-08T13:33:58Z</time>
      </trkpt>
      <trkpt lat="44.17026" lon="3.21733">
        <ele>757</ele>
        <time>2009-07-08T13:34:18Z</time>
      </trkpt>
      <trkpt lat="44.17026" lon="3.21732">
        <ele>764</ele>
        <time>2009-07-08T13:34:19Z</time>
      </trkpt>
      <trkpt lat="44.17026" lon="3.21732">
        <ele>759</ele>
        <time>2009-07-08T13:34:20Z</time>
      </trkpt>
      <trkpt lat="44.17026" lon="3.21732">
        <ele>764</ele>
        <time>2009-07-08T13:34:22Z</time>
      </trkpt>
      <trkpt lat="44.17026" lon="3.21732">
        <ele>761</ele>
        <time>2009-07-08T13:34:23Z</time>
      </trkpt>
      <trkpt lat="44.17026" lon="3.21732">
        <ele>764</ele>
        <time>2009-07-08T13:34:27Z</time>
      </trkpt>
      <trkpt lat="44.17026" lon="3.21732">
        <ele>758</ele>
        <time>2009-07-08T13:34:28Z</time>
      </trkpt>
      <trkpt lat="44.17027" lon="3.21732">
        <ele>762</ele>
        <time>2009-07-08T13:34:30Z</time>
      </trkpt>
      <trkpt lat="44.17027" lon="3.21732">
        <ele>759</ele>
        <time>2009-07-08T13:34:34Z</time>
      </trkpt>
      <trkpt lat="44.17027" lon="3.21732">
        <ele>762</ele>
        <time>2009-07-08T13:34:35Z</time>
      </trkpt>
      <trkpt lat="44.17027" lon="3.21731">
        <ele>763</ele>
        <time>2009-07-08T13:35:32Z</time>
      </trkpt>
      <trkpt lat="44.17026" lon="3.21732">
        <ele>762</ele>
        <time>2009-07-08T13:36:02Z</time>
      </trkpt>
      <trkpt lat="44.17013" lon="3.21735">
        <ele>763</ele>
        <time>2009-07-08T13:36:11Z</time>
      </trkpt>
      <trkpt lat="44.17005" lon="3.21737">
        <ele>763</ele>
        <time>2009-07-08T13:36:24Z</time>
      </trkpt>
      <trkpt lat="44.17002" lon="3.21736">
        <ele>763</ele>
        <time>2009-07-08T13:36:30Z</time>
      </trkpt>
      <trkpt lat="44.17" lon="3.21737">
        <ele>762</ele>
        <time>2009-07-08T13:36:46Z</time>
      </trkpt>
      <trkpt lat="44.17001" lon="3.21736">
        <ele>762</ele>
        <time>2009-07-08T13:36:50Z</time>
      </trkpt>
      <trkpt lat="44.17007" lon="3.21742">
        <ele>763</ele>
        <time>2009-07-08T13:37:03Z</time>
      </trkpt>
      <trkpt lat="44.17022" lon="3.21744">
        <ele>764</ele>
        <time>2009-07-08T13:37:15Z</time>
      </trkpt>
      <trkpt lat="44.17028" lon="3.21741">
        <ele>764</ele>
        <time>2009-07-08T13:37:28Z</time>
      </trkpt>
      <trkpt lat="44.17034" lon="3.21742">
        <ele>765</ele>
        <time>2009-07-08T13:37:38Z</time>
      </trkpt>
      <trkpt lat="44.17039" lon="3.21742">
        <ele>764</ele>
        <time>2009-07-08T13:37:51Z</time>
      </trkpt>
      <trkpt lat="44.17046" lon="3.21744">
        <ele>765</ele>
        <time>2009-07-08T13:38:03Z</time>
      </trkpt>
      <trkpt lat="44.17061" lon="3.21742">
        <ele>766</ele>
        <time>2009-07-08T13:38:15Z</time>
      </trkpt>
      <trkpt lat="44.1707" lon="3.21743">
        <ele>767</ele>
        <time>2009-07-08T13:38:27Z</time>
      </trkpt>
      <trkpt lat="44.17083" lon="3.21739">
        <ele>768</ele>
        <time>2009-07-08T13:38:39Z</time>
      </trkpt>
      <trkpt lat="44.17083" lon="3.21739">
        <ele>768</ele>
        <time>2009-07-08T13:38:40Z</time>
      </trkpt>
      <trkpt lat="44.17077" lon="3.21744">
        <ele>766</ele>
        <time>2009-07-08T13:38:54Z</time>
      </trkpt>
      <trkpt lat="44.17075" lon="3.21748">
        <ele>768</ele>
        <time>2009-07-08T13:39:12Z</time>
      </trkpt>
      <trkpt lat="44.17071" lon="3.2175">
        <ele>769</ele>
        <time>2009-07-08T13:39:26Z</time>
      </trkpt>
      <trkpt lat="44.17046" lon="3.21765">
        <ele>772</ele>
        <time>2009-07-08T13:39:43Z</time>
      </trkpt>
      <trkpt lat="44.17044" lon="3.21767">
        <ele>772</ele>
        <time>2009-07-08T13:39:46Z</time>
      </trkpt>
      <trkpt lat="44.1703" lon="3.21775">
        <ele>773</ele>
        <time>2009-07-08T13:39:55Z</time>
      </trkpt>
      <trkpt lat="44.17014" lon="3.21785">
        <ele>774</ele>
        <time>2009-07-08T13:40:04Z</time>
      </trkpt>
      <trkpt lat="44.16997" lon="3.2178">
        <ele>775</ele>
        <time>2009-07-08T13:40:13Z</time>
      </trkpt>
      <trkpt lat="44.1699" lon="3.21773">
        <ele>775</ele>
        <time>2009-07-08T13:40:19Z</time>
      </trkpt>
      <trkpt lat="44.1697" lon="3.21766">
        <ele>777</ele>
        <time>2009-07-08T13:40:33Z</time>
      </trkpt>
      <trkpt lat="44.16946" lon="3.21774">
        <ele>779</ele>
        <time>2009-07-08T13:40:48Z</time>
      </trkpt>
      <trkpt lat="44.16923" lon="3.21778">
        <ele>782</ele>
        <time>2009-07-08T13:41:04Z</time>
      </trkpt>
      <trkpt lat="44.16913" lon="3.21785">
        <ele>784</ele>
        <time>2009-07-08T13:41:14Z</time>
      </trkpt>
      <trkpt lat="44.16901" lon="3.21795">
        <ele>784</ele>
        <time>2009-07-08T13:41:28Z</time>
      </trkpt>
      <trkpt lat="44.16899" lon="3.21798">
        <ele>785</ele>
        <time>2009-07-08T13:41:54Z</time>
      </trkpt>
      <trkpt lat="44.16898" lon="3.218">
        <ele>786</ele>
        <time>2009-07-08T13:42:08Z</time>
      </trkpt>
      <trkpt lat="44.16883" lon="3.2181">
        <ele>787</ele>
        <time>2009-07-08T13:42:19Z</time>
      </trkpt>
      <trkpt lat="44.16875" lon="3.21816">
        <ele>787</ele>
        <time>2009-07-08T13:42:24Z</time>
      </trkpt>
      <trkpt lat="44.16857" lon="3.21826">
        <ele>789</ele>
        <time>2009-07-08T13:42:35Z</time>
      </trkpt>
      <trkpt lat="44.16834" lon="3.21842">
        <ele>791</ele>
        <time>2009-07-08T13:42:49Z</time>
      </trkpt>
      <trkpt lat="44.16822" lon="3.2185">
        <ele>793</ele>
        <time>2009-07-08T13:42:56Z</time>
      </trkpt>
      <trkpt lat="44.16818" lon="3.21864">
        <ele>794</ele>
        <time>2009-07-08T13:43:09Z</time>
      </trkpt>
      <trkpt lat="44.16816" lon="3.2187">
        <ele>795</ele>
        <time>2009-07-08T13:43:24Z</time>
      </trkpt>
      <trkpt lat="44.16815" lon="3.21871">
        <ele>795</ele>
        <time>2009-07-08T13:44:27Z</time>
      </trkpt>
      <trkpt lat="44.16797" lon="3.21881">
        <ele>793</ele>
        <time>2009-07-08T13:44:37Z</time>
      </trkpt>
      <trkpt lat="44.16782" lon="3.21883">
        <ele>792</ele>
        <time>2009-07-08T13:44:41Z</time>
      </trkpt>
      <trkpt lat="44.16773" lon="3.21892">
        <ele>791</ele>
        <time>2009-07-08T13:44:45Z</time>
      </trkpt>
      <trkpt lat="44.16767" lon="3.21893">
        <ele>790</ele>
        <time>2009-07-08T13:44:47Z</time>
      </trkpt>
      <trkpt lat="44.16753" lon="3.21904">
        <ele>788</ele>
        <time>2009-07-08T13:44:53Z</time>
      </trkpt>
      <trkpt lat="44.16741" lon="3.21909">
        <ele>787</ele>
        <time>2009-07-08T13:44:57Z</time>
      </trkpt>
      <trkpt lat="44.16732" lon="3.21911">
        <ele>785</ele>
        <time>2009-07-08T13:45:01Z</time>
      </trkpt>
      <trkpt lat="44.1669" lon="3.21916">
        <ele>782</ele>
        <time>2009-07-08T13:45:13Z</time>
      </trkpt>
      <trkpt lat="44.16658" lon="3.21923">
        <ele>782</ele>
        <time>2009-07-08T13:45:23Z</time>
      </trkpt>
      <trkpt lat="44.16614" lon="3.21945">
        <ele>782</ele>
        <time>2009-07-08T13:45:39Z</time>
      </trkpt>
      <trkpt lat="44.16574" lon="3.21958">
        <ele>783</ele>
        <time>2009-07-08T13:45:53Z</time>
      </trkpt>
      <trkpt lat="44.16571" lon="3.21959">
        <ele>784</ele>
        <time>2009-07-08T13:45:54Z</time>
      </trkpt>
      <trkpt lat="44.16542" lon="3.21955">
        <ele>787</ele>
        <time>2009-07-08T13:46:05Z</time>
      </trkpt>
      <trkpt lat="44.16506" lon="3.21978">
        <ele>789</ele>
        <time>2009-07-08T13:46:21Z</time>
      </trkpt>
      <trkpt lat="44.16476" lon="3.21979">
        <ele>790</ele>
        <time>2009-07-08T13:46:33Z</time>
      </trkpt>
      <trkpt lat="44.1644" lon="3.21985">
        <ele>790</ele>
        <time>2009-07-08T13:46:45Z</time>
      </trkpt>
      <trkpt lat="44.16397" lon="3.21988">
        <ele>791</ele>
        <time>2009-07-08T13:47:00Z</time>
      </trkpt>
      <trkpt lat="44.16367" lon="3.21958">
        <ele>793</ele>
        <time>2009-07-08T13:47:13Z</time>
      </trkpt>
      <trkpt lat="44.16342" lon="3.21979">
        <ele>796</ele>
        <time>2009-07-08T13:47:24Z</time>
      </trkpt>
      <trkpt lat="44.16332" lon="3.21978">
        <ele>796</ele>
        <time>2009-07-08T13:47:29Z</time>
      </trkpt>
      <trkpt lat="44.16328" lon="3.21982">
        <ele>796</ele>
        <time>2009-07-08T13:47:37Z</time>
      </trkpt>
      <trkpt lat="44.16327" lon="3.21996">
        <ele>796</ele>
        <time>2009-07-08T13:47:49Z</time>
      </trkpt>
      <trkpt lat="44.16328" lon="3.21996">
        <ele>797</ele>
        <time>2009-07-08T13:48:14Z</time>
      </trkpt>
      <trkpt lat="44.16324" lon="3.21997">
        <ele>797</ele>
        <time>2009-07-08T14:04:30Z</time>
      </trkpt>
      <trkpt lat="44.16323" lon="3.21994">
        <ele>797</ele>
        <time>2009-07-08T14:04:44Z</time>
      </trkpt>
      <trkpt lat="44.16321" lon="3.2199">
        <ele>795</ele>
        <time>2009-07-08T14:04:49Z</time>
      </trkpt>
      <trkpt lat="44.16322" lon="3.21987">
        <ele>796</ele>
        <time>2009-07-08T14:05:12Z</time>
      </trkpt>
      <trkpt lat="44.16323" lon="3.21985">
        <ele>796</ele>
        <time>2009-07-08T14:05:23Z</time>
      </trkpt>
      <trkpt lat="44.16325" lon="3.21936">
        <ele>795</ele>
        <time>2009-07-08T14:05:37Z</time>
      </trkpt>
      <trkpt lat="44.16326" lon="3.21933">
        <ele>795</ele>
        <time>2009-07-08T14:05:50Z</time>
      </trkpt>
      <trkpt lat="44.16321" lon="3.21927">
        <ele>795</ele>
        <time>2009-07-08T14:06:01Z</time>
      </trkpt>
      <trkpt lat="44.16305" lon="3.21902">
        <ele>798</ele>
        <time>2009-07-08T14:06:12Z</time>
      </trkpt>
      <trkpt lat="44.16284" lon="3.21868">
        <ele>799</ele>
        <time>2009-07-08T14:06:31Z</time>
      </trkpt>
      <trkpt lat="44.16272" lon="3.21814">
        <ele>799</ele>
        <time>2009-07-08T14:06:48Z</time>
      </trkpt>
      <trkpt lat="44.16254" lon="3.21775">
        <ele>799</ele>
        <time>2009-07-08T14:07:00Z</time>
      </trkpt>
      <trkpt lat="44.16256" lon="3.21751">
        <ele>798</ele>
        <time>2009-07-08T14:07:08Z</time>
      </trkpt>
      <trkpt lat="44.16256" lon="3.21743">
        <ele>797</ele>
        <time>2009-07-08T14:07:10Z</time>
      </trkpt>
      <trkpt lat="44.16249" lon="3.21727">
        <ele>794</ele>
        <time>2009-07-08T14:07:14Z</time>
      </trkpt>
      <trkpt lat="44.16244" lon="3.21718">
        <ele>793</ele>
        <time>2009-07-08T14:07:16Z</time>
      </trkpt>
      <trkpt lat="44.16234" lon="3.21688">
        <ele>790</ele>
        <time>2009-07-08T14:07:23Z</time>
      </trkpt>
      <trkpt lat="44.1623" lon="3.21666">
        <ele>789</ele>
        <time>2009-07-08T14:07:27Z</time>
      </trkpt>
      <trkpt lat="44.16223" lon="3.21623">
        <ele>786</ele>
        <time>2009-07-08T14:07:36Z</time>
      </trkpt>
      <trkpt lat="44.16224" lon="3.21616">
        <ele>786</ele>
        <time>2009-07-08T14:07:39Z</time>
      </trkpt>
      <trkpt lat="44.16221" lon="3.21594">
        <ele>783</ele>
        <time>2009-07-08T14:07:44Z</time>
      </trkpt>
      <trkpt lat="44.1622" lon="3.2159">
        <ele>784</ele>
        <time>2009-07-08T14:07:45Z</time>
      </trkpt>
      <trkpt lat="44.16211" lon="3.21589">
        <ele>783</ele>
        <time>2009-07-08T14:07:50Z</time>
      </trkpt>
      <trkpt lat="44.16173" lon="3.21596">
        <ele>784</ele>
        <time>2009-07-08T14:08:03Z</time>
      </trkpt>
      <trkpt lat="44.16138" lon="3.21617">
        <ele>783</ele>
        <time>2009-07-08T14:08:15Z</time>
      </trkpt>
      <trkpt lat="44.16112" lon="3.21631">
        <ele>782</ele>
        <time>2009-07-08T14:08:23Z</time>
      </trkpt>
      <trkpt lat="44.16096" lon="3.21621">
        <ele>781</ele>
        <time>2009-07-08T14:08:31Z</time>
      </trkpt>
      <trkpt lat="44.16089" lon="3.21625">
        <ele>780</ele>
        <time>2009-07-08T14:08:34Z</time>
      </trkpt>
      <trkpt lat="44.16044" lon="3.21655">
        <ele>779</ele>
        <time>2009-07-08T14:08:47Z</time>
      </trkpt>
      <trkpt lat="44.16014" lon="3.21673">
        <ele>780</ele>
        <time>2009-07-08T14:08:56Z</time>
      </trkpt>
      <trkpt lat="44.16002" lon="3.21668">
        <ele>780</ele>
        <time>2009-07-08T14:09:01Z</time>
      </trkpt>
      <trkpt lat="44.15995" lon="3.21632">
        <ele>780</ele>
        <time>2009-07-08T14:09:13Z</time>
      </trkpt>
      <trkpt lat="44.15968" lon="3.21629">
        <ele>779</ele>
        <time>2009-07-08T14:09:23Z</time>
      </trkpt>
      <trkpt lat="44.1596" lon="3.21626">
        <ele>779</ele>
        <time>2009-07-08T14:09:26Z</time>
      </trkpt>
      <trkpt lat="44.1596" lon="3.21599">
        <ele>778</ele>
        <time>2009-07-08T14:09:36Z</time>
      </trkpt>
      <trkpt lat="44.1596" lon="3.21584">
        <ele>777</ele>
        <time>2009-07-08T14:09:39Z</time>
      </trkpt>
      <trkpt lat="44.15961" lon="3.21573">
        <ele>776</ele>
        <time>2009-07-08T14:09:41Z</time>
      </trkpt>
      <trkpt lat="44.15972" lon="3.2154">
        <ele>774</ele>
        <time>2009-07-08T14:09:49Z</time>
      </trkpt>
      <trkpt lat="44.1597" lon="3.21526">
        <ele>772</ele>
        <time>2009-07-08T14:09:52Z</time>
      </trkpt>
      <trkpt lat="44.15965" lon="3.21514">
        <ele>771</ele>
        <time>2009-07-08T14:09:54Z</time>
      </trkpt>
      <trkpt lat="44.15959" lon="3.21499">
        <ele>767</ele>
        <time>2009-07-08T14:09:56Z</time>
      </trkpt>
      <trkpt lat="44.15952" lon="3.21479">
        <ele>765</ele>
        <time>2009-07-08T14:09:58Z</time>
      </trkpt>
      <trkpt lat="44.15936" lon="3.21439">
        <ele>760</ele>
        <time>2009-07-08T14:10:02Z</time>
      </trkpt>
      <trkpt lat="44.1592" lon="3.21401">
        <ele>757</ele>
        <time>2009-07-08T14:10:06Z</time>
      </trkpt>
      <trkpt lat="44.15914" lon="3.2138">
        <ele>756</ele>
        <time>2009-07-08T14:10:13Z</time>
      </trkpt>
      <trkpt lat="44.15901" lon="3.21367">
        <ele>754</ele>
        <time>2009-07-08T14:10:20Z</time>
      </trkpt>
      <trkpt lat="44.15897" lon="3.21363">
        <ele>754</ele>
        <time>2009-07-08T14:10:22Z</time>
      </trkpt>
      <trkpt lat="44.15881" lon="3.21362">
        <ele>751</ele>
        <time>2009-07-08T14:10:31Z</time>
      </trkpt>
      <trkpt lat="44.15879" lon="3.21364">
        <ele>751</ele>
        <time>2009-07-08T14:10:33Z</time>
      </trkpt>
      <trkpt lat="44.15876" lon="3.2137">
        <ele>751</ele>
        <time>2009-07-08T14:10:36Z</time>
      </trkpt>
      <trkpt lat="44.15864" lon="3.21373">
        <ele>747</ele>
        <time>2009-07-08T14:10:42Z</time>
      </trkpt>
      <trkpt lat="44.15858" lon="3.21364">
        <ele>747</ele>
        <time>2009-07-08T14:10:46Z</time>
      </trkpt>
      <trkpt lat="44.15856" lon="3.21354">
        <ele>747</ele>
        <time>2009-07-08T14:10:49Z</time>
      </trkpt>
      <trkpt lat="44.15848" lon="3.21327">
        <ele>743</ele>
        <time>2009-07-08T14:10:57Z</time>
      </trkpt>
      <trkpt lat="44.15847" lon="3.21321">
        <ele>743</ele>
        <time>2009-07-08T14:10:59Z</time>
      </trkpt>
      <trkpt lat="44.15843" lon="3.2132">
        <ele>742</ele>
        <time>2009-07-08T14:11:10Z</time>
      </trkpt>
      <trkpt lat="44.15837" lon="3.21323">
        <ele>741</ele>
        <time>2009-07-08T14:11:13Z</time>
      </trkpt>
      <trkpt lat="44.1583" lon="3.21305">
        <ele>740</ele>
        <time>2009-07-08T14:11:21Z</time>
      </trkpt>
      <trkpt lat="44.15828" lon="3.21302">
        <ele>738</ele>
        <time>2009-07-08T14:11:31Z</time>
      </trkpt>
      <trkpt lat="44.15825" lon="3.21301">
        <ele>738</ele>
        <time>2009-07-08T14:11:42Z</time>
      </trkpt>
      <trkpt lat="44.1582" lon="3.21303">
        <ele>738</ele>
        <time>2009-07-08T14:11:53Z</time>
      </trkpt>
      <trkpt lat="44.1582" lon="3.21303">
        <ele>737</ele>
        <time>2009-07-08T14:11:56Z</time>
      </trkpt>
      <trkpt lat="44.15812" lon="3.21337">
        <ele>736</ele>
        <time>2009-07-08T14:12:08Z</time>
      </trkpt>
      <trkpt lat="44.15801" lon="3.21401">
        <ele>732</ele>
        <time>2009-07-08T14:12:18Z</time>
      </trkpt>
      <trkpt lat="44.15793" lon="3.21445">
        <ele>731</ele>
        <time>2009-07-08T14:12:24Z</time>
      </trkpt>
      <trkpt lat="44.15788" lon="3.2146">
        <ele>730</ele>
        <time>2009-07-08T14:12:26Z</time>
      </trkpt>
      <trkpt lat="44.15776" lon="3.21479">
        <ele>728</ele>
        <time>2009-07-08T14:12:29Z</time>
      </trkpt>
      <trkpt lat="44.15761" lon="3.21496">
        <ele>727</ele>
        <time>2009-07-08T14:12:32Z</time>
      </trkpt>
      <trkpt lat="44.15741" lon="3.21527">
        <ele>726</ele>
        <time>2009-07-08T14:12:36Z</time>
      </trkpt>
      <trkpt lat="44.15731" lon="3.21556">
        <ele>724</ele>
        <time>2009-07-08T14:12:39Z</time>
      </trkpt>
      <trkpt lat="44.15717" lon="3.21609">
        <ele>722</ele>
        <time>2009-07-08T14:12:44Z</time>
      </trkpt>
      <trkpt lat="44.15723" lon="3.217">
        <ele>720</ele>
        <time>2009-07-08T14:12:52Z</time>
      </trkpt>
      <trkpt lat="44.15735" lon="3.21727">
        <ele>719</ele>
        <time>2009-07-08T14:12:53Z</time>
      </trkpt>
      <trkpt lat="44.15717" lon="3.21752">
        <ele>718</ele>
        <time>2009-07-08T14:12:58Z</time>
      </trkpt>
      <trkpt lat="44.15697" lon="3.21758">
        <ele>716</ele>
        <time>2009-07-08T14:12:59Z</time>
      </trkpt>
      <trkpt lat="44.15683" lon="3.21767">
        <ele>715</ele>
      </trkpt>
      <trkpt lat="44.15683" lon="3.21767">
        <ele>715</ele>
      </trkpt>
      <trkpt lat="44.15629" lon="3.21788">
        <ele>713</ele>
      </trkpt>
      <trkpt lat="44.15526" lon="3.21765">
        <ele>702</ele>
      </trkpt>
      <trkpt lat="44.15486" lon="3.21723">
        <ele>696</ele>
      </trkpt>
      <trkpt lat="44.15407" lon="3.21719">
        <ele>691</ele>
      </trkpt>
      <trkpt lat="44.15347" lon="3.21687">
        <ele>687</ele>
      </trkpt>
      <trkpt lat="44.15311" lon="3.21702">
        <ele>684</ele>
      </trkpt>
      <trkpt lat="44.15274" lon="3.21773">
        <ele>685</ele>
      </trkpt>
      <trkpt lat="44.15222" lon="3.21794">
        <ele>679</ele>
      </trkpt>
      <trkpt lat="44.15198" lon="3.21781">
        <ele>679</ele>
      </trkpt>
      <trkpt lat="44.15185" lon="3.21715">
        <ele>685</ele>
      </trkpt>
      <trkpt lat="44.15153" lon="3.21712">
        <ele>680</ele>
      </trkpt>
      <trkpt lat="44.1507" lon="3.21711">
        <ele>680</ele>
      </trkpt>
      <trkpt lat="44.15017" lon="3.21644">
        <ele>676</ele>
      </trkpt>
      <trkpt lat="44.14974" lon="3.2159">
        <ele>674</ele>
      </trkpt>
      <trkpt lat="44.14932" lon="3.21602">
        <ele>673</ele>
      </trkpt>
      <trkpt lat="44.14877" lon="3.2163">
        <ele>671</ele>
      </trkpt>
      <trkpt lat="44.14853" lon="3.21648">
        <ele>670</ele>
      </trkpt>
      <trkpt lat="44.14751" lon="3.21643">
        <ele>663</ele>
      </trkpt>
      <trkpt lat="44.14707" lon="3.21621">
        <ele>662</ele>
      </trkpt>
      <trkpt lat="44.14698" lon="3.21612">
        <ele>663</ele>
      </trkpt>
      <trkpt lat="44.14723" lon="3.21571">
        <ele>670</ele>
      </trkpt>
      <trkpt lat="44.14784" lon="3.21567">
        <ele>677</ele>
      </trkpt>
      <trkpt lat="44.14841" lon="3.2159">
        <ele>674</ele>
      </trkpt>
      <trkpt lat="44.1485" lon="3.2156">
        <ele>682</ele>
      </trkpt>
      <trkpt lat="44.148" lon="3.21488">
        <ele>698</ele>
      </trkpt>
      <trkpt lat="44.14866" lon="3.21483">
        <ele>704</ele>
      </trkpt>
      <trkpt lat="44.14962" lon="3.21453">
        <ele>699</ele>
      </trkpt>
      <trkpt lat="44.14987" lon="3.21197">
        <ele>736</ele>
      </trkpt>
      <trkpt lat="44.14904" lon="3.20951">
        <ele>741</ele>
      </trkpt>
      <trkpt lat="44.14933" lon="3.20816">
        <ele>742</ele>
      </trkpt>
      <trkpt lat="44.14881" lon="3.20769">
        <ele>741</ele>
      </trkpt>
      <trkpt lat="44.14807" lon="3.20748">
        <ele>742</ele>
      </trkpt>
      <trkpt lat="44.14793" lon="3.20576">
        <ele>755</ele>
      </trkpt>
      <trkpt lat="44.1485" lon="3.20419">
        <ele>769</ele>
      </trkpt>
      <trkpt lat="44.14912" lon="3.2021">
        <ele>781</ele>
      </trkpt>
      <trkpt lat="44.14922" lon="3.2009">
        <ele>788</ele>
      </trkpt>
      <trkpt lat="44.14886" lon="3.19954">
        <ele>798</ele>
      </trkpt>
      <trkpt lat="44.14829" lon="3.19933">
        <ele>806</ele>
      </trkpt>
      <trkpt lat="44.14757" lon="3.19871">
        <ele>809</ele>
      </trkpt>
      <trkpt lat="44.14739" lon="3.19777">
        <ele>812</ele>
      </trkpt>
      <trkpt lat="44.14736" lon="3.1977">
        <ele>811</ele>
      </trkpt>
      <trkpt lat="44.14686" lon="3.19877">
        <ele>812</ele>
      </trkpt>
      <trkpt lat="44.14623" lon="3.19919">
        <ele>812</ele>
      </trkpt>
      <trkpt lat="44.14532" lon="3.20039">
        <ele>816</ele>
      </trkpt>
      <trkpt lat="44.14453" lon="3.2019">
        <ele>815</ele>
      </trkpt>
      <trkpt lat="44.14165" lon="3.20214">
        <ele>811</ele>
      </trkpt>
      <trkpt lat="44.14088" lon="3.20242">
        <ele>811</ele>
      </trkpt>
      <trkpt lat="44.14003" lon="3.2024">
        <ele>808</ele>
      </trkpt>
      <trkpt lat="44.13887" lon="3.20295">
        <ele>800</ele>
      </trkpt>
      <trkpt lat="44.13844" lon="3.20278">
        <ele>798</ele>
      </trkpt>
      <trkpt lat="44.13832" lon="3.20238">
        <ele>794</ele>
      </trkpt>
      <trkpt lat="44.13829" lon="3.20143">
        <ele>786</ele>
      </trkpt>
      <trkpt lat="44.13685" lon="3.20107">
        <ele>777</ele>
      </trkpt>
      <trkpt lat="44.13639" lon="3.20104">
        <ele>774</ele>
      </trkpt>
      <trkpt lat="44.13606" lon="3.20054">
        <ele>766</ele>
      </trkpt>
      <trkpt lat="44.13567" lon="3.20064">
        <ele>763</ele>
      </trkpt>
      <trkpt lat="44.13531" lon="3.20088">
        <ele>767</ele>
      </trkpt>
      <trkpt lat="44.1344" lon="3.20067">
        <ele>756</ele>
      </trkpt>
      <trkpt lat="44.13346" lon="3.20015">
        <ele>751</ele>
      </trkpt>
      <trkpt lat="44.13314" lon="3.20036">
        <ele>753</ele>
      </trkpt>
      <trkpt lat="44.13288" lon="3.20015">
        <ele>752</ele>
      </trkpt>
      <trkpt lat="44.13288" lon="3.20054">
        <ele>753</ele>
      </trkpt>
      <trkpt lat="44.13258" lon="3.20045">
        <ele>753</ele>
      </trkpt>
      <trkpt lat="44.13218" lon="3.20094">
        <ele>733</ele>
      </trkpt>
      <trkpt lat="44.13266" lon="3.20146">
        <ele>749</ele>
      </trkpt>
      <trkpt lat="44.13306" lon="3.20219">
        <ele>746</ele>
      </trkpt>
      <trkpt lat="44.13353" lon="3.20237">
        <ele>759</ele>
      </trkpt>
      <trkpt lat="44.13348" lon="3.20278">
        <ele>760</ele>
      </trkpt>
      <trkpt lat="44.13309" lon="3.20308">
        <ele>747</ele>
      </trkpt>
      <trkpt lat="44.13305" lon="3.20341">
        <ele>757</ele>
      </trkpt>
      <trkpt lat="44.13163" lon="3.20292">
        <ele>737</ele>
      </trkpt>
      <trkpt lat="44.13089" lon="3.20334">
        <ele>744</ele>
      </trkpt>
      <trkpt lat="44.13094" lon="3.20386">
        <ele>744</ele>
      </trkpt>
      <trkpt lat="44.13091" lon="3.20435">
        <ele>741</ele>
      </trkpt>
      <trkpt lat="44.13123" lon="3.20481">
        <ele>741</ele>
      </trkpt>
      <trkpt lat="44.13137" lon="3.20587">
        <ele>736</ele>
      </trkpt>
      <trkpt lat="44.13182" lon="3.20646">
        <ele>743</ele>
      </trkpt>
      <trkpt lat="44.13129" lon="3.20662">
        <ele>737</ele>
      </trkpt>
      <trkpt lat="44.1306" lon="3.20681">
        <ele>737</ele>
      </trkpt>
      <trkpt lat="44.13052" lon="3.20651">
        <ele>731</ele>
      </trkpt>
      <trkpt lat="44.12983" lon="3.20612">
        <ele>725</ele>
      </trkpt>
      <trkpt lat="44.1292" lon="3.20593">
        <ele>723</ele>
      </trkpt>
      <trkpt lat="44.1293" lon="3.2063">
        <ele>726</ele>
      </trkpt>
      <trkpt lat="44.12964" lon="3.20662">
        <ele>727</ele>
      </trkpt>
      <trkpt lat="44.12974" lon="3.20725">
        <ele>736</ele>
      </trkpt>
      <trkpt lat="44.12971" lon="3.20775">
        <ele>736</ele>
      </trkpt>
      <trkpt lat="44.12954" lon="3.20836">
        <ele>727</ele>
      </trkpt>
      <trkpt lat="44.12961" lon="3.20916">
        <ele>723</ele>
      </trkpt>
      <trkpt lat="44.12922" lon="3.2108">
        <ele>674</ele>
      </trkpt>
      <trkpt lat="44.1287" lon="3.21169">
        <ele>647</ele>
      </trkpt>
      <trkpt lat="44.12826" lon="3.21166">
        <ele>631</ele>
      </trkpt>
      <trkpt lat="44.1276" lon="3.21218">
        <ele>613</ele>
      </trkpt>
      <trkpt lat="44.12631" lon="3.21242">
        <ele>559</ele>
      </trkpt>
      <trkpt lat="44.12501" lon="3.21312">
        <ele>543</ele>
      </trkpt>
      <trkpt lat="44.12457" lon="3.21295">
        <ele>524</ele>
      </trkpt>
      <trkpt lat="44.12371" lon="3.21344">
        <ele>542</ele>
      </trkpt>
      <trkpt lat="44.12338" lon="3.21386">
        <ele>547</ele>
      </trkpt>
      <trkpt lat="44.12253" lon="3.21408">
        <ele>520</ele>
      </trkpt>
      <trkpt lat="44.12225" lon="3.21489">
        <ele>511</ele>
      </trkpt>
      <trkpt lat="44.1227" lon="3.21582">
        <ele>530</ele>
      </trkpt>
      <trkpt lat="44.12294" lon="3.21631">
        <ele>516</ele>
      </trkpt>
      <trkpt lat="44.12351" lon="3.21662">
        <ele>537</ele>
      </trkpt>
      <trkpt lat="44.12395" lon="3.21781">
        <ele>500</ele>
      </trkpt>
      <trkpt lat="44.12405" lon="3.21835">
        <ele>494</ele>
      </trkpt>
      <trkpt lat="44.12426" lon="3.21888">
        <ele>507</ele>
      </trkpt>
      <trkpt lat="44.12428" lon="3.21959">
        <ele>487</ele>
      </trkpt>
      <trkpt lat="44.12447" lon="3.22">
        <ele>485</ele>
      </trkpt>
      <trkpt lat="44.12444" lon="3.22041">
        <ele>467</ele>
      </trkpt>
      <trkpt lat="44.12386" lon="3.22106">
        <ele>424</ele>
      </trkpt>
      <trkpt lat="44.12397" lon="3.22157">
        <ele>421</ele>
      </trkpt>
      <trkpt lat="44.12353" lon="3.22097">
        <ele>423</ele>
      </trkpt>
      <trkpt lat="44.12336" lon="3.22175">
        <ele>406</ele>
      </trkpt>
      <trkpt lat="44.12255" lon="3.22168">
        <ele>398</ele>
      </trkpt>
      <trkpt lat="44.12234" lon="3.21986">
        <ele>394</ele>
      </trkpt>
      <trkpt lat="44.1217" lon="3.21886">
        <ele>407</ele>
      </trkpt>
      <trkpt lat="44.12105" lon="3.21841">
        <ele>426</ele>
      </trkpt>
      <trkpt lat="44.12047" lon="3.21821">
        <ele>442</ele>
      </trkpt>
      <trkpt lat="44.12004" lon="3.21817">
        <ele>454</ele>
      </trkpt>
      <trkpt lat="44.1195" lon="3.21845">
        <ele>470</ele>
      </trkpt>
      <trkpt lat="44.11905" lon="3.21866">
        <ele>476</ele>
      </trkpt>
      <trkpt lat="44.11886" lon="3.21925">
        <ele>496</ele>
      </trkpt>
      <trkpt lat="44.11857" lon="3.21949">
        <ele>501</ele>
      </trkpt>
      <trkpt lat="44.11825" lon="3.21999">
        <ele>513</ele>
      </trkpt>
      <trkpt lat="44.11796" lon="3.21995">
        <ele>507</ele>
      </trkpt>
      <trkpt lat="44.11783" lon="3.21951">
        <ele>496</ele>
      </trkpt>
      <trkpt lat="44.11801" lon="3.21911">
        <ele>486</ele>
      </trkpt>
      <trkpt lat="44.11804" lon="3.21852">
        <ele>483</ele>
      </trkpt>
      <trkpt lat="44.11768" lon="3.21783">
        <ele>516</ele>
      </trkpt>
      <trkpt lat="44.11758" lon="3.21707">
        <ele>517</ele>
      </trkpt>
      <trkpt lat="44.11711" lon="3.21619">
        <ele>544</ele>
      </trkpt>
      <trkpt lat="44.11667" lon="3.21538">
        <ele>564</ele>
      </trkpt>
      <trkpt lat="44.11641" lon="3.21431">
        <ele>570</ele>
      </trkpt>
      <trkpt lat="44.11567" lon="3.21361">
        <ele>608</ele>
      </trkpt>
      <trkpt lat="44.11584" lon="3.21284">
        <ele>604</ele>
      </trkpt>
      <trkpt lat="44.11561" lon="3.2128">
        <ele>617</ele>
      </trkpt>
      <trkpt lat="44.11541" lon="3.21286">
        <ele>625</ele>
      </trkpt>
      <trkpt lat="44.11514" lon="3.2127">
        <ele>638</ele>
      </trkpt>
      <trkpt lat="44.11419" lon="3.21343">
        <ele>672</ele>
      </trkpt>
      <trkpt lat="44.11352" lon="3.21342">
        <ele>665</ele>
      </trkpt>
      <trkpt lat="44.11309" lon="3.21367">
        <ele>669</ele>
      </trkpt>
      <trkpt lat="44.11282" lon="3.21357">
        <ele>662</ele>
      </trkpt>
      <trkpt lat="44.11128" lon="3.21417">
        <ele>665</ele>
      </trkpt>
      <trkpt lat="44.11075" lon="3.2141">
        <ele>661</ele>
      </trkpt>
      <trkpt lat="44.10965" lon="3.21558">
        <ele>683</ele>
      </trkpt>
      <trkpt lat="44.10863" lon="3.21666">
        <ele>691</ele>
      </trkpt>
      <trkpt lat="44.10793" lon="3.21714">
        <ele>692</ele>
      </trkpt>
      <trkpt lat="44.108" lon="3.21786">
        <ele>691</ele>
      </trkpt>
      <trkpt lat="44.10833" lon="3.21827">
        <ele>691</ele>
      </trkpt>
      <trkpt lat="44.10848" lon="3.21868">
        <ele>690</ele>
      </trkpt>
      <trkpt lat="44.10931" lon="3.21941">
        <ele>694</ele>
      </trkpt>
      <trkpt lat="44.1098" lon="3.22032">
        <ele>697</ele>
      </trkpt>
      <trkpt lat="44.11031" lon="3.2208">
        <ele>704</ele>
      </trkpt>
      <trkpt lat="44.11017" lon="3.2217">
        <ele>707</ele>
      </trkpt>
      <trkpt lat="44.10991" lon="3.22544">
        <ele>731</ele>
      </trkpt>
      <trkpt lat="44.10966" lon="3.22637">
        <ele>730</ele>
      </trkpt>
      <trkpt lat="44.1096" lon="3.22737">
        <ele>724</ele>
      </trkpt>
      <trkpt lat="44.10892" lon="3.22798">
        <ele>731</ele>
      </trkpt>
      <trkpt lat="44.10854" lon="3.2287">
        <ele>730</ele>
      </trkpt>
      <trkpt lat="44.10855" lon="3.23001">
        <ele>734</ele>
      </trkpt>
      <trkpt lat="44.10825" lon="3.23119">
        <ele>748</ele>
      </trkpt>
      <trkpt lat="44.10805" lon="3.23312">
        <ele>767</ele>
      </trkpt>
      <trkpt lat="44.10809" lon="3.23418">
        <ele>774</ele>
      </trkpt>
      <trkpt lat="44.1084" lon="3.23447">
        <ele>773</ele>
      </trkpt>
      <trkpt lat="44.10844" lon="3.23484">
        <ele>773</ele>
      </trkpt>
      <trkpt lat="44.109" lon="3.23541">
        <ele>768</ele>
      </trkpt>
      <trkpt lat="44.10911" lon="3.23604">
        <ele>768</ele>
      </trkpt>
      <trkpt lat="44.10968" lon="3.23714">
        <ele>766</ele>
      </trkpt>
      <trkpt lat="44.11024" lon="3.23752">
        <ele>764</ele>
      </trkpt>
      <trkpt lat="44.11109" lon="3.23847">
        <ele>765</ele>
      </trkpt>
      <trkpt lat="44.11198" lon="3.23945">
        <ele>752</ele>
      </trkpt>
      <trkpt lat="44.11222" lon="3.2403">
        <ele>750</ele>
      </trkpt>
      <trkpt lat="44.11246" lon="3.24061">
        <ele>745</ele>
      </trkpt>
      <trkpt lat="44.11256" lon="3.24133">
        <ele>741</ele>
      </trkpt>
      <trkpt lat="44.11266" lon="3.24162">
        <ele>736</ele>
      </trkpt>
      <trkpt lat="44.11302" lon="3.24191">
        <ele>714</ele>
      </trkpt>
      <trkpt lat="44.11329" lon="3.24209">
        <ele>696</ele>
      </trkpt>
      <trkpt lat="44.11351" lon="3.242">
        <ele>686</ele>
      </trkpt>
      <trkpt lat="44.1136" lon="3.24184">
        <ele>684</ele>
      </trkpt>
      <trkpt lat="44.1138" lon="3.24188">
        <ele>673</ele>
      </trkpt>
      <trkpt lat="44.11389" lon="3.24161">
        <ele>669</ele>
      </trkpt>
      <trkpt lat="44.1141" lon="3.24196">
        <ele>655</ele>
      </trkpt>
      <trkpt lat="44.11429" lon="3.24162">
        <ele>645</ele>
      </trkpt>
      <trkpt lat="44.11449" lon="3.24171">
        <ele>634</ele>
      </trkpt>
      <trkpt lat="44.11446" lon="3.2421">
        <ele>632</ele>
      </trkpt>
      <trkpt lat="44.11454" lon="3.24279">
        <ele>617</ele>
      </trkpt>
      <trkpt lat="44.11465" lon="3.24276">
        <ele>610</ele>
      </trkpt>
      <trkpt lat="44.11473" lon="3.24251">
        <ele>613</ele>
      </trkpt>
      <trkpt lat="44.11482" lon="3.24259">
        <ele>606</ele>
      </trkpt>
      <trkpt lat="44.1149" lon="3.24242">
        <ele>608</ele>
      </trkpt>
      <trkpt lat="44.11503" lon="3.24263">
        <ele>596</ele>
      </trkpt>
      <trkpt lat="44.11512" lon="3.24238">
        <ele>603</ele>
      </trkpt>
      <trkpt lat="44.11528" lon="3.24288">
        <ele>577</ele>
      </trkpt>
      <trkpt lat="44.11592" lon="3.24263">
        <ele>568</ele>
      </trkpt>
      <trkpt lat="44.11609" lon="3.24305">
        <ele>557</ele>
      </trkpt>
      <trkpt lat="44.11675" lon="3.2434">
        <ele>521</ele>
      </trkpt>
      <trkpt lat="44.11688" lon="3.24375">
        <ele>502</ele>
      </trkpt>
      <trkpt lat="44.11711" lon="3.24374">
        <ele>498</ele>
      </trkpt>
      <trkpt lat="44.11728" lon="3.24402">
        <ele>480</ele>
      </trkpt>
      <trkpt lat="44.11743" lon="3.24382">
        <ele>487</ele>
      </trkpt>
      <trkpt lat="44.11754" lon="3.24398">
        <ele>477</ele>
      </trkpt>
      <trkpt lat="44.11753" lon="3.24423">
        <ele>465</ele>
      </trkpt>
      <trkpt lat="44.11782" lon="3.24419">
        <ele>460</ele>
      </trkpt>
      <trkpt lat="44.11785" lon="3.2445">
        <ele>449</ele>
      </trkpt>
      <trkpt lat="44.11798" lon="3.24434">
        <ele>451</ele>
      </trkpt>
      <trkpt lat="44.11795" lon="3.24388">
        <ele>469</ele>
      </trkpt>
      <trkpt lat="44.11806" lon="3.24368">
        <ele>473</ele>
      </trkpt>
      <trkpt lat="44.11851" lon="3.24413">
        <ele>439</ele>
      </trkpt>
      <trkpt lat="44.11853" lon="3.24459">
        <ele>431</ele>
      </trkpt>
      <trkpt lat="44.11874" lon="3.24444">
        <ele>427</ele>
      </trkpt>
      <trkpt lat="44.11868" lon="3.24468">
        <ele>426</ele>
      </trkpt>
      <trkpt lat="44.1189" lon="3.24459">
        <ele>422</ele>
      </trkpt>
      <trkpt lat="44.11887" lon="3.24478">
        <ele>421</ele>
      </trkpt>
      <trkpt lat="44.11866" lon="3.245">
        <ele>425</ele>
      </trkpt>
      <trkpt lat="44.11868" lon="3.24518">
        <ele>425</ele>
      </trkpt>
      <trkpt lat="44.11879" lon="3.24511">
        <ele>423</ele>
      </trkpt>
      <trkpt lat="44.11895" lon="3.24491">
        <ele>420</ele>
      </trkpt>
      <trkpt lat="44.11916" lon="3.24478">
        <ele>422</ele>
      </trkpt>
      <trkpt lat="44.11946" lon="3.24491">
        <ele>427</ele>
      </trkpt>
      <trkpt lat="44.11982" lon="3.2451">
        <ele>442</ele>
      </trkpt>
      <trkpt lat="44.11954" lon="3.24577">
        <ele>434</ele>
      </trkpt>
      <trkpt lat="44.11864" lon="3.2463">
        <ele>449</ele>
      </trkpt>
      <trkpt lat="44.11756" lon="3.24637">
        <ele>439</ele>
      </trkpt>
      <trkpt lat="44.11636" lon="3.24745">
        <ele>442</ele>
      </trkpt>
      <trkpt lat="44.11473" lon="3.24967">
        <ele>479</ele>
      </trkpt>
      <trkpt lat="44.11362" lon="3.24971">
        <ele>438</ele>
      </trkpt>
      <trkpt lat="44.11337" lon="3.24999">
        <ele>447</ele>
      </trkpt>
      <trkpt lat="44.11232" lon="3.25022">
        <ele>448</ele>
      </trkpt>
      <trkpt lat="44.11373" lon="3.25031">
        <ele>471</ele>
      </trkpt>
      <trkpt lat="44.11233" lon="3.25085">
        <ele>464</ele>
      </trkpt>
      <trkpt lat="44.11219" lon="3.25119">
        <ele>454</ele>
      </trkpt>
      <trkpt lat="44.11246" lon="3.25157">
        <ele>457</ele>
      </trkpt>
      <trkpt lat="44.11282" lon="3.25167">
        <ele>476</ele>
      </trkpt>
      <trkpt lat="44.11288" lon="3.25226">
        <ele>471</ele>
      </trkpt>
      <trkpt lat="44.11315" lon="3.25295">
        <ele>484</ele>
      </trkpt>
      <trkpt lat="44.11298" lon="3.2537">
        <ele>471</ele>
      </trkpt>
      <trkpt lat="44.11329" lon="3.25417">
        <ele>487</ele>
      </trkpt>
      <trkpt lat="44.11288" lon="3.25563">
        <ele>481</ele>
      </trkpt>
      <trkpt lat="44.11325" lon="3.25663">
        <ele>490</ele>
      </trkpt>
      <trkpt lat="44.11335" lon="3.25813">
        <ele>493</ele>
      </trkpt>
      <trkpt lat="44.11388" lon="3.25873">
        <ele>514</ele>
      </trkpt>
      <trkpt lat="44.11368" lon="3.25923">
        <ele>514</ele>
      </trkpt>
      <trkpt lat="44.11239" lon="3.26008">
        <ele>526</ele>
      </trkpt>
      <trkpt lat="44.11106" lon="3.26068">
        <ele>528</ele>
      </trkpt>
      <trkpt lat="44.11058" lon="3.26124">
        <ele>531</ele>
      </trkpt>
      <trkpt lat="44.11023" lon="3.26248">
        <ele>544</ele>
      </trkpt>
      <trkpt lat="44.10978" lon="3.26316">
        <ele>552</ele>
      </trkpt>
      <trkpt lat="44.10894" lon="3.26393">
        <ele>553</ele>
      </trkpt>
      <trkpt lat="44.10855" lon="3.26445">
        <ele>560</ele>
      </trkpt>
      <trkpt lat="44.10756" lon="3.26447">
        <ele>553</ele>
      </trkpt>
      <trkpt lat="44.10709" lon="3.26483">
        <ele>561</ele>
      </trkpt>
      <trkpt lat="44.10704" lon="3.2653">
        <ele>566</ele>
      </trkpt>
      <trkpt lat="44.10788" lon="3.26488">
        <ele>566</ele>
      </trkpt>
      <trkpt lat="44.10835" lon="3.26504">
        <ele>576</ele>
      </trkpt>
      <trkpt lat="44.10873" lon="3.26526">
        <ele>590</ele>
      </trkpt>
      <trkpt lat="44.10856" lon="3.26559">
        <ele>595</ele>
        <time>2007-05-12T00:36:56Z</time>
      </trkpt>
      <trkpt lat="44.10808" lon="3.2663">
        <ele>591</ele>
        <time>2007-05-12T00:36:56Z</time>
      </trkpt>
      <trkpt lat="44.10947" lon="3.26897">
        <ele>629</ele>
        <time>2007-05-12T00:36:56Z</time>
      </trkpt>
      <trkpt lat="44.10945" lon="3.27184">
        <ele>601</ele>
        <time>2007-05-12T00:36:56Z</time>
      </trkpt>
      <trkpt lat="44.10978" lon="3.2726">
        <ele>623</ele>
        <time>2007-05-12T00:36:56Z</time>
      </trkpt>
      <trkpt lat="44.10987" lon="3.27425">
        <ele>625</ele>
        <time>2007-05-12T00:36:56Z</time>
      </trkpt>
      <trkpt lat="44.11059" lon="3.2752">
        <ele>649</ele>
        <time>2007-05-12T00:36:56Z</time>
      </trkpt>
      <trkpt lat="44.11057" lon="3.27692">
        <ele>644</ele>
        <time>2007-05-12T00:36:56Z</time>
      </trkpt>
      <trkpt lat="44.11132" lon="3.27861">
        <ele>674</ele>
        <time>2007-05-12T00:36:56Z</time>
      </trkpt>
      <trkpt lat="44.11318" lon="3.27908">
        <ele>692</ele>
        <time>2007-05-12T00:36:56Z</time>
      </trkpt>
      <trkpt lat="44.11521" lon="3.28077">
        <ele>719</ele>
        <time>2007-05-12T00:36:56Z</time>
      </trkpt>
      <trkpt lat="44.11658" lon="3.28113">
        <ele>729</ele>
        <time>2007-05-12T00:36:56Z</time>
      </trkpt>
      <trkpt lat="44.11709" lon="3.28199">
        <ele>745</ele>
        <time>2007-05-12T00:36:56Z</time>
      </trkpt>
      <trkpt lat="44.11699" lon="3.28308">
        <ele>752</ele>
        <time>2007-05-12T00:36:56Z</time>
      </trkpt>
      <trkpt lat="44.11547" lon="3.28517">
        <ele>770</ele>
        <time>2007-05-12T00:36:56Z</time>
      </trkpt>
      <trkpt lat="44.11436" lon="3.28893">
        <ele>798</ele>
        <time>2007-05-12T00:36:56Z</time>
      </trkpt>
      <trkpt lat="44.11406" lon="3.28921">
        <ele>792</ele>
        <time>2007-05-12T00:36:56Z</time>
      </trkpt>
      <trkpt lat="44.11379" lon="3.29145">
        <ele>796</ele>
        <time>2007-05-12T00:36:56Z</time>
      </trkpt>
      <trkpt lat="44.1156" lon="3.29525">
        <ele>815</ele>
        <time>2007-05-12T00:36:56Z</time>
      </trkpt>
      <trkpt lat="44.11394" lon="3.29572">
        <ele>815</ele>
        <time>2007-05-12T00:36:56Z</time>
      </trkpt>
      <trkpt lat="44.11304" lon="3.29533">
        <ele>824</ele>
        <time>2007-05-12T00:36:56Z</time>
      </trkpt>
      <trkpt lat="44.11287" lon="3.29699">
        <ele>840</ele>
        <time>2007-05-12T00:36:56Z</time>
      </trkpt>
      <trkpt lat="44.11059" lon="3.30038">
        <ele>847</ele>
        <time>2007-05-12T00:36:56Z</time>
      </trkpt>
      <trkpt lat="44.1105" lon="3.30262">
        <ele>839</ele>
        <time>2007-05-12T00:36:56Z</time>
      </trkpt>
      <trkpt lat="44.10954" lon="3.30276">
        <ele>833</ele>
        <time>2007-05-12T00:36:56Z</time>
      </trkpt>
      <trkpt lat="44.10899" lon="3.30381">
        <ele>846</ele>
        <time>2007-05-12T00:36:56Z</time>
      </trkpt>
      <trkpt lat="44.10908" lon="3.30394">
        <ele>846</ele>
      </trkpt>
      <trkpt lat="44.10908" lon="3.30394">
        <ele>846</ele>
      </trkpt>
      <trkpt lat="44.10908" lon="3.30394">
        <ele>846</ele>
      </trkpt>
      <trkpt lat="44.10929" lon="3.30485">
        <ele>848</ele>
      </trkpt>
      <trkpt lat="44.10998" lon="3.30549">
        <ele>854</ele>
      </trkpt>
      <trkpt lat="44.11025" lon="3.30633">
        <ele>859</ele>
      </trkpt>
      <trkpt lat="44.11081" lon="3.30849">
        <ele>867</ele>
      </trkpt>
      <trkpt lat="44.11147" lon="3.30997">
        <ele>872</ele>
      </trkpt>
      <trkpt lat="44.11184" lon="3.31182">
        <ele>875</ele>
      </trkpt>
      <trkpt lat="44.11164" lon="3.31384">
        <ele>877</ele>
      </trkpt>
      <trkpt lat="44.11205" lon="3.31575">
        <ele>881</ele>
      </trkpt>
      <trkpt lat="44.11272" lon="3.31826">
        <ele>876</ele>
      </trkpt>
      <trkpt lat="44.11312" lon="3.31977">
        <ele>876</ele>
      </trkpt>
      <trkpt lat="44.1133" lon="3.32155">
        <ele>871</ele>
      </trkpt>
      <trkpt lat="44.11324" lon="3.32301">
        <ele>869</ele>
      </trkpt>
      <trkpt lat="44.11325" lon="3.32448">
        <ele>867</ele>
      </trkpt>
      <trkpt lat="44.1129" lon="3.32656">
        <ele>862</ele>
      </trkpt>
      <trkpt lat="44.11306" lon="3.32828">
        <ele>854</ele>
      </trkpt>
      <trkpt lat="44.1128" lon="3.32987">
        <ele>850</ele>
      </trkpt>
      <trkpt lat="44.11256" lon="3.33115">
        <ele>850</ele>
      </trkpt>
      <trkpt lat="44.11266" lon="3.33261">
        <ele>860</ele>
      </trkpt>
      <trkpt lat="44.1124" lon="3.33389">
        <ele>865</ele>
      </trkpt>
      <trkpt lat="44.11244" lon="3.33461">
        <ele>867</ele>
      </trkpt>
      <trkpt lat="44.11262" lon="3.3352">
        <ele>867</ele>
      </trkpt>
      <trkpt lat="44.11263" lon="3.33583">
        <ele>866</ele>
      </trkpt>
      <trkpt lat="44.11282" lon="3.3373">
        <ele>865</ele>
      </trkpt>
      <trkpt lat="44.11267" lon="3.33876">
        <ele>864</ele>
      </trkpt>
      <trkpt lat="44.11309" lon="3.33998">
        <ele>863</ele>
      </trkpt>
      <trkpt lat="44.11363" lon="3.33993">
        <ele>867</ele>
      </trkpt>
      <trkpt lat="44.11396" lon="3.34025">
        <ele>867</ele>
      </trkpt>
      <trkpt lat="44.11476" lon="3.3437">
        <ele>868</ele>
      </trkpt>
      <trkpt lat="44.11477" lon="3.34519">
        <ele>868</ele>
      </trkpt>
      <trkpt lat="44.11472" lon="3.34616">
        <ele>865</ele>
      </trkpt>
      <trkpt lat="44.11492" lon="3.34676">
        <ele>866</ele>
      </trkpt>
      <trkpt lat="44.11492" lon="3.34676">
        <ele>866</ele>
      </trkpt>
      <trkpt lat="44.11522" lon="3.34789">
        <ele>861</ele>
      </trkpt>
      <trkpt lat="44.11557" lon="3.34877">
        <ele>862</ele>
      </trkpt>
      <trkpt lat="44.11495" lon="3.3505">
        <ele>859</ele>
      </trkpt>
      <trkpt lat="44.11484" lon="3.34978">
        <ele>858</ele>
      </trkpt>
      <trkpt lat="44.11436" lon="3.35118">
        <ele>864</ele>
      </trkpt>
      <trkpt lat="44.11386" lon="3.35111">
        <ele>866</ele>
      </trkpt>
      <trkpt lat="44.11308" lon="3.35309">
        <ele>882</ele>
      </trkpt>
      <trkpt lat="44.11279" lon="3.35327">
        <ele>882</ele>
      </trkpt>
      <trkpt lat="44.11269" lon="3.35377">
        <ele>886</ele>
      </trkpt>
      <trkpt lat="44.1124" lon="3.35411">
        <ele>889</ele>
      </trkpt>
      <trkpt lat="44.1121" lon="3.35448">
        <ele>893</ele>
      </trkpt>
      <trkpt lat="44.11116" lon="3.35449">
        <ele>905</ele>
      </trkpt>
      <trkpt lat="44.11071" lon="3.35916">
        <ele>897</ele>
      </trkpt>
      <trkpt lat="44.11076" lon="3.36122">
        <ele>894</ele>
      </trkpt>
      <trkpt lat="44.11063" lon="3.36262">
        <ele>893</ele>
      </trkpt>
      <trkpt lat="44.11006" lon="3.36402">
        <ele>891</ele>
      </trkpt>
      <trkpt lat="44.10885" lon="3.36524">
        <ele>886</ele>
      </trkpt>
      <trkpt lat="44.10921" lon="3.36578">
        <ele>887</ele>
      </trkpt>
      <trkpt lat="44.10918" lon="3.36628">
        <ele>886</ele>
      </trkpt>
      <trkpt lat="44.11071" lon="3.3683">
        <ele>888</ele>
      </trkpt>
      <trkpt lat="44.11132" lon="3.37016">
        <ele>889</ele>
      </trkpt>
      <trkpt lat="44.11098" lon="3.3733">
        <ele>897</ele>
      </trkpt>
      <trkpt lat="44.1111" lon="3.37502">
        <ele>903</ele>
      </trkpt>
      <trkpt lat="44.11175" lon="3.37697">
        <ele>900</ele>
      </trkpt>
      <trkpt lat="44.11255" lon="3.37817">
        <ele>910</ele>
      </trkpt>
      <trkpt lat="44.11285" lon="3.37995">
        <ele>919</ele>
      </trkpt>
      <trkpt lat="44.11227" lon="3.38153">
        <ele>910</ele>
      </trkpt>
      <trkpt lat="44.11236" lon="3.38209">
        <ele>901</ele>
      </trkpt>
      <trkpt lat="44.1141" lon="3.38369">
        <ele>896</ele>
      </trkpt>
      <trkpt lat="44.11483" lon="3.38389">
        <ele>913</ele>
      </trkpt>
      <trkpt lat="44.11538" lon="3.38552">
        <ele>912</ele>
      </trkpt>
      <trkpt lat="44.11783" lon="3.38844">
        <ele>932</ele>
      </trkpt>
      <trkpt lat="44.11877" lon="3.38861">
        <ele>933</ele>
      </trkpt>
      <trkpt lat="44.11934" lon="3.38971">
        <ele>936</ele>
      </trkpt>
      <trkpt lat="44.1209" lon="3.39099">
        <ele>933</ele>
      </trkpt>
      <trkpt lat="44.12167" lon="3.39116">
        <ele>940</ele>
      </trkpt>
      <trkpt lat="44.12287" lon="3.39209">
        <ele>940</ele>
      </trkpt>
      <trkpt lat="44.12332" lon="3.39234">
        <ele>934</ele>
      </trkpt>
      <trkpt lat="44.12318" lon="3.39257">
        <ele>946</ele>
        <time>2009-07-08T16:14:28Z</time>
      </trkpt>
      <trkpt lat="44.12309" lon="3.39304">
        <ele>945</ele>
        <time>2009-07-08T16:14:34Z</time>
      </trkpt>
      <trkpt lat="44.12309" lon="3.39314">
        <ele>945</ele>
        <time>2009-07-08T16:14:42Z</time>
      </trkpt>
      <trkpt lat="44.12307" lon="3.39338">
        <ele>945</ele>
        <time>2009-07-08T16:15:15Z</time>
      </trkpt>
      <trkpt lat="44.12302" lon="3.39357">
        <ele>944</ele>
        <time>2009-07-08T16:15:19Z</time>
      </trkpt>
      <trkpt lat="44.12294" lon="3.39379">
        <ele>941</ele>
        <time>2009-07-08T16:15:23Z</time>
      </trkpt>
      <trkpt lat="44.12292" lon="3.39389">
        <ele>939</ele>
        <time>2009-07-08T16:15:25Z</time>
      </trkpt>
      <trkpt lat="44.12293" lon="3.39395">
        <ele>938</ele>
        <time>2009-07-08T16:15:27Z</time>
      </trkpt>
      <trkpt lat="44.12295" lon="3.39402">
        <ele>939</ele>
        <time>2009-07-08T16:15:29Z</time>
      </trkpt>
      <trkpt lat="44.12292" lon="3.39417">
        <ele>938</ele>
        <time>2009-07-08T16:15:34Z</time>
      </trkpt>
      <trkpt lat="44.12285" lon="3.39416">
        <ele>937</ele>
        <time>2009-07-08T16:15:36Z</time>
      </trkpt>
      <trkpt lat="44.12257" lon="3.39411">
        <ele>932</ele>
        <time>2009-07-08T16:15:41Z</time>
      </trkpt>
      <trkpt lat="44.12252" lon="3.39411">
        <ele>932</ele>
        <time>2009-07-08T16:15:42Z</time>
      </trkpt>
      <trkpt lat="44.12231" lon="3.39415">
        <ele>928</ele>
        <time>2009-07-08T16:15:46Z</time>
      </trkpt>
      <trkpt lat="44.12221" lon="3.39423">
        <ele>926</ele>
        <time>2009-07-08T16:15:48Z</time>
      </trkpt>
      <trkpt lat="44.12208" lon="3.39438">
        <ele>924</ele>
        <time>2009-07-08T16:15:51Z</time>
      </trkpt>
      <trkpt lat="44.12198" lon="3.39463">
        <ele>922</ele>
        <time>2009-07-08T16:15:55Z</time>
      </trkpt>
      <trkpt lat="44.12195" lon="3.39469">
        <ele>920</ele>
        <time>2009-07-08T16:15:56Z</time>
      </trkpt>
      <trkpt lat="44.12187" lon="3.39484">
        <ele>918</ele>
        <time>2009-07-08T16:15:58Z</time>
      </trkpt>
      <trkpt lat="44.12172" lon="3.39501">
        <ele>916</ele>
        <time>2009-07-08T16:16:01Z</time>
      </trkpt>
      <trkpt lat="44.12146" lon="3.39507">
        <ele>913</ele>
        <time>2009-07-08T16:16:06Z</time>
      </trkpt>
      <trkpt lat="44.12115" lon="3.39504">
        <ele>908</ele>
        <time>2009-07-08T16:16:12Z</time>
      </trkpt>
      <trkpt lat="44.121" lon="3.39517">
        <ele>905</ele>
        <time>2009-07-08T16:16:15Z</time>
      </trkpt>
      <trkpt lat="44.12089" lon="3.39524">
        <ele>903</ele>
        <time>2009-07-08T16:16:17Z</time>
      </trkpt>
      <trkpt lat="44.12078" lon="3.3953">
        <ele>901</ele>
        <time>2009-07-08T16:16:19Z</time>
      </trkpt>
      <trkpt lat="44.12065" lon="3.39536">
        <ele>900</ele>
        <time>2009-07-08T16:16:21Z</time>
      </trkpt>
      <trkpt lat="44.12041" lon="3.39551">
        <ele>895</ele>
        <time>2009-07-08T16:16:25Z</time>
      </trkpt>
      <trkpt lat="44.12024" lon="3.39566">
        <ele>891</ele>
        <time>2009-07-08T16:16:28Z</time>
      </trkpt>
      <trkpt lat="44.12012" lon="3.39576">
        <ele>888</ele>
        <time>2009-07-08T16:16:30Z</time>
      </trkpt>
      <trkpt lat="44.11986" lon="3.39599">
        <ele>885</ele>
        <time>2009-07-08T16:16:34Z</time>
      </trkpt>
      <trkpt lat="44.11964" lon="3.39616">
        <ele>881</ele>
        <time>2009-07-08T16:16:37Z</time>
      </trkpt>
      <trkpt lat="44.11958" lon="3.39623">
        <ele>879</ele>
        <time>2009-07-08T16:16:38Z</time>
      </trkpt>
      <trkpt lat="44.11923" lon="3.39659">
        <ele>876</ele>
        <time>2009-07-08T16:16:43Z</time>
      </trkpt>
      <trkpt lat="44.11916" lon="3.39666">
        <ele>876</ele>
        <time>2009-07-08T16:16:44Z</time>
      </trkpt>
      <trkpt lat="44.11904" lon="3.39676">
        <ele>874</ele>
        <time>2009-07-08T16:16:46Z</time>
      </trkpt>
      <trkpt lat="44.11897" lon="3.39688">
        <ele>876</ele>
        <time>2009-07-08T16:16:53Z</time>
      </trkpt>
      <trkpt lat="44.11894" lon="3.3969">
        <ele>876</ele>
        <time>2009-07-08T16:17:12Z</time>
      </trkpt>
      <trkpt lat="44.11901" lon="3.39683">
        <ele>875</ele>
        <time>2009-07-08T16:17:30Z</time>
      </trkpt>
      <trkpt lat="44.11902" lon="3.39681">
        <ele>875</ele>
        <time>2009-07-08T16:17:36Z</time>
      </trkpt>
      <trkpt lat="44.11905" lon="3.39678">
        <ele>874</ele>
        <time>2009-07-08T16:17:38Z</time>
      </trkpt>
      <trkpt lat="44.11909" lon="3.39676">
        <ele>873</ele>
        <time>2009-07-08T16:17:41Z</time>
      </trkpt>
      <trkpt lat="44.11914" lon="3.39673">
        <ele>872</ele>
        <time>2009-07-08T16:17:43Z</time>
      </trkpt>
      <trkpt lat="44.11918" lon="3.39672">
        <ele>871</ele>
        <time>2009-07-08T16:17:45Z</time>
      </trkpt>
      <trkpt lat="44.11924" lon="3.39669">
        <ele>870</ele>
        <time>2009-07-08T16:17:47Z</time>
      </trkpt>
      <trkpt lat="44.11931" lon="3.39668">
        <ele>868</ele>
        <time>2009-07-08T16:17:49Z</time>
      </trkpt>
      <trkpt lat="44.11942" lon="3.39668">
        <ele>868</ele>
        <time>2009-07-08T16:17:51Z</time>
      </trkpt>
      <trkpt lat="44.11967" lon="3.39669">
        <ele>869</ele>
        <time>2009-07-08T16:18:00Z</time>
      </trkpt>
      <trkpt lat="44.11967" lon="3.39672">
        <ele>869</ele>
        <time>2009-07-08T16:18:02Z</time>
      </trkpt>
      <trkpt lat="44.11956" lon="3.39683">
        <ele>867</ele>
        <time>2009-07-08T16:18:07Z</time>
      </trkpt>
      <trkpt lat="44.11949" lon="3.3969">
        <ele>864</ele>
        <time>2009-07-08T16:18:09Z</time>
      </trkpt>
      <trkpt lat="44.11938" lon="3.397">
        <ele>861</ele>
        <time>2009-07-08T16:18:11Z</time>
      </trkpt>
      <trkpt lat="44.1191" lon="3.39724">
        <ele>859</ele>
        <time>2009-07-08T16:18:15Z</time>
      </trkpt>
      <trkpt lat="44.11898" lon="3.39738">
        <ele>863</ele>
        <time>2009-07-08T16:18:19Z</time>
      </trkpt>
      <trkpt lat="44.11901" lon="3.39732">
        <ele>862</ele>
        <time>2009-07-08T16:18:32Z</time>
      </trkpt>
      <trkpt lat="44.11898" lon="3.39735">
        <ele>861</ele>
        <time>2009-07-08T16:18:34Z</time>
      </trkpt>
      <trkpt lat="44.11892" lon="3.3974">
        <ele>860</ele>
        <time>2009-07-08T16:18:37Z</time>
      </trkpt>
      <trkpt lat="44.11882" lon="3.39745">
        <ele>859</ele>
        <time>2009-07-08T16:18:40Z</time>
      </trkpt>
      <trkpt lat="44.11868" lon="3.39754">
        <ele>858</ele>
        <time>2009-07-08T16:18:49Z</time>
      </trkpt>
      <trkpt lat="44.11862" lon="3.39756">
        <ele>856</ele>
        <time>2009-07-08T16:19:13Z</time>
      </trkpt>
      <trkpt lat="44.11855" lon="3.39761">
        <ele>856</ele>
        <time>2009-07-08T16:19:33Z</time>
      </trkpt>
      <trkpt lat="44.11846" lon="3.39762">
        <ele>858</ele>
        <time>2009-07-08T16:19:46Z</time>
      </trkpt>
      <trkpt lat="44.11844" lon="3.39762">
        <ele>858</ele>
        <time>2009-07-08T16:19:47Z</time>
      </trkpt>
      <trkpt lat="44.11837" lon="3.39761">
        <ele>859</ele>
        <time>2009-07-08T16:19:52Z</time>
      </trkpt>
      <trkpt lat="44.11818" lon="3.39769">
        <ele>859</ele>
        <time>2009-07-08T16:20:03Z</time>
      </trkpt>
      <trkpt lat="44.11816" lon="3.39771">
        <ele>859</ele>
        <time>2009-07-08T16:20:04Z</time>
      </trkpt>
      <trkpt lat="44.11811" lon="3.39775">
        <ele>860</ele>
        <time>2009-07-08T16:20:06Z</time>
      </trkpt>
      <trkpt lat="44.11802" lon="3.39788">
        <ele>858</ele>
        <time>2009-07-08T16:20:09Z</time>
      </trkpt>
      <trkpt lat="44.11783" lon="3.39811">
        <ele>857</ele>
        <time>2009-07-08T16:20:16Z</time>
      </trkpt>
      <trkpt lat="44.11775" lon="3.39817">
        <ele>857</ele>
        <time>2009-07-08T16:20:18Z</time>
      </trkpt>
      <trkpt lat="44.11749" lon="3.39847">
        <ele>857</ele>
        <time>2009-07-08T16:20:29Z</time>
      </trkpt>
      <trkpt lat="44.11735" lon="3.39862">
        <ele>856</ele>
        <time>2009-07-08T16:20:34Z</time>
      </trkpt>
      <trkpt lat="44.11718" lon="3.3989">
        <ele>853</ele>
        <time>2009-07-08T16:20:40Z</time>
      </trkpt>
      <trkpt lat="44.11707" lon="3.39915">
        <ele>850</ele>
        <time>2009-07-08T16:20:45Z</time>
      </trkpt>
      <trkpt lat="44.11704" lon="3.39926">
        <ele>849</ele>
        <time>2009-07-08T16:20:47Z</time>
      </trkpt>
      <trkpt lat="44.11701" lon="3.39943">
        <ele>846</ele>
        <time>2009-07-08T16:20:50Z</time>
      </trkpt>
      <trkpt lat="44.11695" lon="3.39963">
        <ele>841</ele>
        <time>2009-07-08T16:20:53Z</time>
      </trkpt>
      <trkpt lat="44.11692" lon="3.3997">
        <ele>840</ele>
        <time>2009-07-08T16:20:54Z</time>
      </trkpt>
      <trkpt lat="44.11689" lon="3.39984">
        <ele>840</ele>
        <time>2009-07-08T16:20:56Z</time>
      </trkpt>
      <trkpt lat="44.11684" lon="3.40019">
        <ele>839</ele>
        <time>2009-07-08T16:21:01Z</time>
      </trkpt>
      <trkpt lat="44.11679" lon="3.40031">
        <ele>840</ele>
        <time>2009-07-08T16:21:03Z</time>
      </trkpt>
      <trkpt lat="44.11673" lon="3.40058">
        <ele>835</ele>
        <time>2009-07-08T16:21:07Z</time>
      </trkpt>
      <trkpt lat="44.11669" lon="3.40071">
        <ele>834</ele>
        <time>2009-07-08T16:21:09Z</time>
      </trkpt>
      <trkpt lat="44.11666" lon="3.40083">
        <ele>834</ele>
        <time>2009-07-08T16:21:11Z</time>
      </trkpt>
      <trkpt lat="44.11663" lon="3.4011">
        <ele>832</ele>
        <time>2009-07-08T16:21:16Z</time>
      </trkpt>
      <trkpt lat="44.11657" lon="3.40141">
        <ele>829</ele>
        <time>2009-07-08T16:21:23Z</time>
      </trkpt>
      <trkpt lat="44.11655" lon="3.40147">
        <ele>827</ele>
        <time>2009-07-08T16:21:24Z</time>
      </trkpt>
      <trkpt lat="44.11647" lon="3.40176">
        <ele>824</ele>
        <time>2009-07-08T16:21:29Z</time>
      </trkpt>
      <trkpt lat="44.11628" lon="3.40222">
        <ele>819</ele>
        <time>2009-07-08T16:21:36Z</time>
      </trkpt>
      <trkpt lat="44.11625" lon="3.40228">
        <ele>819</ele>
        <time>2009-07-08T16:21:37Z</time>
      </trkpt>
      <trkpt lat="44.11608" lon="3.40252">
        <ele>817</ele>
        <time>2009-07-08T16:21:41Z</time>
      </trkpt>
      <trkpt lat="44.11596" lon="3.40268">
        <ele>813</ele>
        <time>2009-07-08T16:21:44Z</time>
      </trkpt>
      <trkpt lat="44.11572" lon="3.40291">
        <ele>810</ele>
        <time>2009-07-08T16:21:49Z</time>
      </trkpt>
      <trkpt lat="44.11562" lon="3.40298">
        <ele>808</ele>
        <time>2009-07-08T16:21:51Z</time>
      </trkpt>
      <trkpt lat="44.1154" lon="3.4031">
        <ele>805</ele>
        <time>2009-07-08T16:21:55Z</time>
      </trkpt>
      <trkpt lat="44.1152" lon="3.40316">
        <ele>803</ele>
        <time>2009-07-08T16:21:58Z</time>
      </trkpt>
      <trkpt lat="44.11507" lon="3.4032">
        <ele>801</ele>
        <time>2009-07-08T16:22:00Z</time>
      </trkpt>
      <trkpt lat="44.11465" lon="3.40337">
        <ele>798</ele>
        <time>2009-07-08T16:22:08Z</time>
      </trkpt>
      <trkpt lat="44.11458" lon="3.40342">
        <ele>798</ele>
        <time>2009-07-08T16:22:10Z</time>
      </trkpt>
      <trkpt lat="44.11454" lon="3.40345">
        <ele>797</ele>
        <time>2009-07-08T16:22:11Z</time>
      </trkpt>
      <trkpt lat="44.11445" lon="3.40348">
        <ele>796</ele>
        <time>2009-07-08T16:22:13Z</time>
      </trkpt>
      <trkpt lat="44.1142" lon="3.40353">
        <ele>795</ele>
        <time>2009-07-08T16:22:21Z</time>
      </trkpt>
      <trkpt lat="44.11414" lon="3.40354">
        <ele>793</ele>
        <time>2009-07-08T16:22:38Z</time>
      </trkpt>
      <trkpt lat="44.1141" lon="3.40353">
        <ele>793</ele>
        <time>2009-07-08T16:22:44Z</time>
      </trkpt>
      <trkpt lat="44.114" lon="3.40343">
        <ele>790</ele>
        <time>2009-07-08T16:22:51Z</time>
      </trkpt>
      <trkpt lat="44.11395" lon="3.40327">
        <ele>789</ele>
        <time>2009-07-08T16:22:58Z</time>
      </trkpt>
      <trkpt lat="44.1139" lon="3.40323">
        <ele>788</ele>
        <time>2009-07-08T16:23:01Z</time>
      </trkpt>
      <trkpt lat="44.11385" lon="3.40314">
        <ele>785</ele>
        <time>2009-07-08T16:23:13Z</time>
      </trkpt>
      <trkpt lat="44.1138" lon="3.4031">
        <ele>784</ele>
        <time>2009-07-08T16:23:26Z</time>
      </trkpt>
      <trkpt lat="44.11377" lon="3.403">
        <ele>783</ele>
        <time>2009-07-08T16:23:36Z</time>
      </trkpt>
      <trkpt lat="44.11367" lon="3.40281">
        <ele>782</ele>
        <time>2009-07-08T16:23:45Z</time>
      </trkpt>
      <trkpt lat="44.11351" lon="3.40268">
        <ele>779</ele>
        <time>2009-07-08T16:23:52Z</time>
      </trkpt>
      <trkpt lat="44.11345" lon="3.40267">
        <ele>777</ele>
        <time>2009-07-08T16:23:54Z</time>
      </trkpt>
      <trkpt lat="44.11338" lon="3.40263">
        <ele>776</ele>
        <time>2009-07-08T16:23:58Z</time>
      </trkpt>
      <trkpt lat="44.11332" lon="3.40261">
        <ele>774</ele>
        <time>2009-07-08T16:24:01Z</time>
      </trkpt>
      <trkpt lat="44.11329" lon="3.40259">
        <ele>774</ele>
        <time>2009-07-08T16:24:02Z</time>
      </trkpt>
      <trkpt lat="44.11323" lon="3.40253">
        <ele>773</ele>
        <time>2009-07-08T16:24:05Z</time>
      </trkpt>
      <trkpt lat="44.11314" lon="3.40251">
        <ele>771</ele>
        <time>2009-07-08T16:24:08Z</time>
      </trkpt>
      <trkpt lat="44.11308" lon="3.4025">
        <ele>770</ele>
        <time>2009-07-08T16:24:10Z</time>
      </trkpt>
      <trkpt lat="44.1129" lon="3.40242">
        <ele>767</ele>
        <time>2009-07-08T16:24:17Z</time>
      </trkpt>
      <trkpt lat="44.1128" lon="3.40236">
        <ele>765</ele>
        <time>2009-07-08T16:24:21Z</time>
      </trkpt>
      <trkpt lat="44.11266" lon="3.4023">
        <ele>761</ele>
        <time>2009-07-08T16:24:26Z</time>
      </trkpt>
      <trkpt lat="44.11263" lon="3.40228">
        <ele>761</ele>
        <time>2009-07-08T16:24:27Z</time>
      </trkpt>
      <trkpt lat="44.11248" lon="3.40222">
        <ele>758</ele>
        <time>2009-07-08T16:24:33Z</time>
      </trkpt>
      <trkpt lat="44.11232" lon="3.40216">
        <ele>756</ele>
        <time>2009-07-08T16:24:38Z</time>
      </trkpt>
      <trkpt lat="44.11225" lon="3.40212">
        <ele>755</ele>
        <time>2009-07-08T16:24:41Z</time>
      </trkpt>
      <trkpt lat="44.11203" lon="3.40204">
        <ele>752</ele>
        <time>2009-07-08T16:24:49Z</time>
      </trkpt>
      <trkpt lat="44.11196" lon="3.40195">
        <ele>750</ele>
        <time>2009-07-08T16:25:00Z</time>
      </trkpt>
      <trkpt lat="44.11194" lon="3.40191">
        <ele>750</ele>
        <time>2009-07-08T16:25:08Z</time>
      </trkpt>
      <trkpt lat="44.11191" lon="3.40185">
        <ele>748</ele>
        <time>2009-07-08T16:25:14Z</time>
      </trkpt>
      <trkpt lat="44.11189" lon="3.40189">
        <ele>747</ele>
        <time>2009-07-08T16:25:16Z</time>
      </trkpt>
      <trkpt lat="44.11188" lon="3.40199">
        <ele>747</ele>
        <time>2009-07-08T16:25:30Z</time>
      </trkpt>
      <trkpt lat="44.11185" lon="3.40202">
        <ele>748</ele>
        <time>2009-07-08T16:26:03Z</time>
      </trkpt>
      <trkpt lat="44.11189" lon="3.40204">
        <ele>747</ele>
        <time>2009-07-08T16:28:59Z</time>
      </trkpt>
      <trkpt lat="44.11198" lon="3.40235">
        <ele>747</ele>
        <time>2009-07-08T16:29:11Z</time>
      </trkpt>
      <trkpt lat="44.11235" lon="3.40262">
        <ele>745</ele>
        <time>2009-07-08T16:29:23Z</time>
      </trkpt>
      <trkpt lat="44.11272" lon="3.40289">
        <ele>746</ele>
        <time>2009-07-08T16:29:34Z</time>
      </trkpt>
      <trkpt lat="44.11294" lon="3.40317">
        <ele>746</ele>
        <time>2009-07-08T16:29:44Z</time>
      </trkpt>
      <trkpt lat="44.11313" lon="3.40359">
        <ele>746</ele>
        <time>2009-07-08T16:29:55Z</time>
      </trkpt>
      <trkpt lat="44.11313" lon="3.40402">
        <ele>745</ele>
        <time>2009-07-08T16:30:05Z</time>
      </trkpt>
      <trkpt lat="44.11318" lon="3.40424">
        <ele>745</ele>
        <time>2009-07-08T16:30:10Z</time>
      </trkpt>
      <trkpt lat="44.11325" lon="3.40439">
        <ele>743</ele>
        <time>2009-07-08T16:30:13Z</time>
      </trkpt>
      <trkpt lat="44.11331" lon="3.40462">
        <ele>742</ele>
        <time>2009-07-08T16:30:17Z</time>
      </trkpt>
      <trkpt lat="44.11331" lon="3.40475">
        <ele>742</ele>
        <time>2009-07-08T16:30:19Z</time>
      </trkpt>
      <trkpt lat="44.11329" lon="3.40501">
        <ele>739</ele>
        <time>2009-07-08T16:30:23Z</time>
      </trkpt>
      <trkpt lat="44.11323" lon="3.40528">
        <ele>735</ele>
        <time>2009-07-08T16:30:28Z</time>
      </trkpt>
      <trkpt lat="44.1134" lon="3.40597">
        <ele>718</ele>
      </trkpt>
      <trkpt lat="44.11328" lon="3.40618">
        <ele>716</ele>
      </trkpt>
      <trkpt lat="44.11355" lon="3.40656">
        <ele>716</ele>
      </trkpt>
      <trkpt lat="44.11375" lon="3.40691">
        <ele>718</ele>
      </trkpt>
      <trkpt lat="44.11464" lon="3.40746">
        <ele>716</ele>
      </trkpt>
      <trkpt lat="44.11452" lon="3.40786">
        <ele>717</ele>
      </trkpt>
      <trkpt lat="44.11418" lon="3.4082">
        <ele>725</ele>
      </trkpt>
      <trkpt lat="44.11417" lon="3.40904">
        <ele>728</ele>
      </trkpt>
      <trkpt lat="44.11388" lon="3.40935">
        <ele>738</ele>
      </trkpt>
      <trkpt lat="44.11348" lon="3.40928">
        <ele>751</ele>
      </trkpt>
      <trkpt lat="44.11309" lon="3.40949">
        <ele>763</ele>
      </trkpt>
      <trkpt lat="44.11271" lon="3.40982">
        <ele>778</ele>
      </trkpt>
      <trkpt lat="44.11254" lon="3.41038">
        <ele>796</ele>
      </trkpt>
      <trkpt lat="44.11249" lon="3.41085">
        <ele>809</ele>
      </trkpt>
      <trkpt lat="44.11191" lon="3.41099">
        <ele>823</ele>
      </trkpt>
      <trkpt lat="44.11128" lon="3.41117">
        <ele>830</ele>
      </trkpt>
      <trkpt lat="44.11082" lon="3.41141">
        <ele>836</ele>
      </trkpt>
      <trkpt lat="44.11081" lon="3.41107">
        <ele>829</ele>
      </trkpt>
      <trkpt lat="44.11108" lon="3.41032">
        <ele>815</ele>
      </trkpt>
      <trkpt lat="44.11113" lon="3.40992">
        <ele>814</ele>
      </trkpt>
      <trkpt lat="44.1106" lon="3.40919">
        <ele>838</ele>
      </trkpt>
      <trkpt lat="44.11031" lon="3.40925">
        <ele>848</ele>
      </trkpt>
      <trkpt lat="44.11017" lon="3.40956">
        <ele>857</ele>
      </trkpt>
      <trkpt lat="44.10967" lon="3.40948">
        <ele>874</ele>
      </trkpt>
      <trkpt lat="44.10898" lon="3.40903">
        <ele>881</ele>
      </trkpt>
      <trkpt lat="44.10877" lon="3.40794">
        <ele>863</ele>
      </trkpt>
      <trkpt lat="44.10859" lon="3.40765">
        <ele>866</ele>
      </trkpt>
      <trkpt lat="44.10806" lon="3.40768">
        <ele>884</ele>
      </trkpt>
      <trkpt lat="44.10853" lon="3.40798">
        <ele>876</ele>
      </trkpt>
      <trkpt lat="44.10866" lon="3.40895">
        <ele>892</ele>
      </trkpt>
      <trkpt lat="44.10844" lon="3.40829">
        <ele>888</ele>
      </trkpt>
      <trkpt lat="44.10804" lon="3.4081">
        <ele>900</ele>
      </trkpt>
      <trkpt lat="44.10758" lon="3.40827">
        <ele>920</ele>
      </trkpt>
      <trkpt lat="44.10622" lon="3.40797">
        <ele>919</ele>
      </trkpt>
      <trkpt lat="44.10576" lon="3.40883">
        <ele>934</ele>
      </trkpt>
      <trkpt lat="44.10421" lon="3.41049">
        <ele>934</ele>
      </trkpt>
      <trkpt lat="44.10305" lon="3.40997">
        <ele>926</ele>
      </trkpt>
      <trkpt lat="44.10195" lon="3.4097">
        <ele>931</ele>
      </trkpt>
      <trkpt lat="44.10171" lon="3.40944">
        <ele>926</ele>
      </trkpt>
      <trkpt lat="44.10161" lon="3.40994">
        <ele>937</ele>
      </trkpt>
      <trkpt lat="44.10178" lon="3.41063">
        <ele>947</ele>
      </trkpt>
      <trkpt lat="44.10237" lon="3.41077">
        <ele>950</ele>
      </trkpt>
      <trkpt lat="44.10281" lon="3.41115">
        <ele>957</ele>
      </trkpt>
      <trkpt lat="44.10285" lon="3.41208">
        <ele>976</ele>
      </trkpt>
      <trkpt lat="44.10264" lon="3.41311">
        <ele>990</ele>
      </trkpt>
      <trkpt lat="44.10214" lon="3.41513">
        <ele>1016</ele>
      </trkpt>
      <trkpt lat="44.10179" lon="3.41659">
        <ele>1024</ele>
      </trkpt>
      <trkpt lat="44.10181" lon="3.41946">
        <ele>1048</ele>
      </trkpt>
      <trkpt lat="44.10115" lon="3.42066">
        <ele>1066</ele>
      </trkpt>
      <trkpt lat="44.10082" lon="3.42203">
        <ele>1076</ele>
      </trkpt>
      <trkpt lat="44.10016" lon="3.42292">
        <ele>1093</ele>
      </trkpt>
      <trkpt lat="44.09913" lon="3.42465">
        <ele>1105</ele>
      </trkpt>
      <trkpt lat="44.09868" lon="3.42473">
        <ele>1113</ele>
      </trkpt>
      <trkpt lat="44.09745" lon="3.42611">
        <ele>1101</ele>
      </trkpt>
      <trkpt lat="44.09473" lon="3.42799">
        <ele>1137</ele>
      </trkpt>
      <trkpt lat="44.09414" lon="3.42914">
        <ele>1131</ele>
      </trkpt>
      <trkpt lat="44.09318" lon="3.43021">
        <ele>1145</ele>
      </trkpt>
      <trkpt lat="44.09283" lon="3.43123">
        <ele>1150</ele>
      </trkpt>
      <trkpt lat="44.09252" lon="3.43076">
        <ele>1162</ele>
      </trkpt>
      <trkpt lat="44.09236" lon="3.43076">
        <ele>1166</ele>
      </trkpt>
      <trkpt lat="44.09207" lon="3.43144">
        <ele>1176</ele>
      </trkpt>
      <trkpt lat="44.09186" lon="3.43135">
        <ele>1180</ele>
      </trkpt>
      <trkpt lat="44.09163" lon="3.43185">
        <ele>1187</ele>
      </trkpt>
      <trkpt lat="44.09129" lon="3.43192">
        <ele>1192</ele>
      </trkpt>
      <trkpt lat="44.0913" lon="3.43229">
        <ele>1194</ele>
      </trkpt>
      <trkpt lat="44.091" lon="3.43249">
        <ele>1199</ele>
      </trkpt>
      <trkpt lat="44.09097" lon="3.4331">
        <ele>1202</ele>
      </trkpt>
      <trkpt lat="44.08947" lon="3.4344">
        <ele>1225</ele>
      </trkpt>
      <trkpt lat="44.08836" lon="3.43561">
        <ele>1240</ele>
      </trkpt>
      <trkpt lat="44.08716" lon="3.43705">
        <ele>1245</ele>
      </trkpt>
      <trkpt lat="44.08542" lon="3.43789">
        <ele>1243</ele>
      </trkpt>
      <trkpt lat="44.08449" lon="3.4389">
        <ele>1254</ele>
      </trkpt>
      <trkpt lat="44.08398" lon="3.44032">
        <ele>1269</ele>
      </trkpt>
      <trkpt lat="44.08337" lon="3.4405">
        <ele>1277</ele>
      </trkpt>
      <trkpt lat="44.08246" lon="3.44114">
        <ele>1283</ele>
      </trkpt>
      <trkpt lat="44.08254" lon="3.44254">
        <ele>1276</ele>
      </trkpt>
      <trkpt lat="44.08214" lon="3.44203">
        <ele>1264</ele>
      </trkpt>
      <trkpt lat="44.0821" lon="3.44341">
        <ele>1248</ele>
      </trkpt>
      <trkpt lat="44.08198" lon="3.44409">
        <ele>1240</ele>
      </trkpt>
      <trkpt lat="44.0817" lon="3.44343">
        <ele>1227</ele>
      </trkpt>
      <trkpt lat="44.08163" lon="3.44377">
        <ele>1222</ele>
      </trkpt>
      <trkpt lat="44.081" lon="3.44326">
        <ele>1197</ele>
      </trkpt>
      <trkpt lat="44.08046" lon="3.44319">
        <ele>1183</ele>
      </trkpt>
      <trkpt lat="44.08062" lon="3.44356">
        <ele>1180</ele>
      </trkpt>
      <trkpt lat="44.0805" lon="3.44359">
        <ele>1176</ele>
      </trkpt>
      <trkpt lat="44.08055" lon="3.44387">
        <ele>1173</ele>
      </trkpt>
      <trkpt lat="44.08001" lon="3.44377">
        <ele>1155</ele>
      </trkpt>
      <trkpt lat="44.07951" lon="3.4441">
        <ele>1133</ele>
      </trkpt>
      <trkpt lat="44.0787" lon="3.44371">
        <ele>1129</ele>
      </trkpt>
      <trkpt lat="44.07798" lon="3.44386">
        <ele>1116</ele>
      </trkpt>
      <trkpt lat="44.07726" lon="3.44378">
        <ele>1112</ele>
      </trkpt>
      <trkpt lat="44.07662" lon="3.44317">
        <ele>1113</ele>
      </trkpt>
      <trkpt lat="44.07639" lon="3.44345">
        <ele>1102</ele>
      </trkpt>
      <trkpt lat="44.0752" lon="3.44371">
        <ele>1089</ele>
      </trkpt>
      <trkpt lat="44.07441" lon="3.44404">
        <ele>1074</ele>
      </trkpt>
      <trkpt lat="44.07445" lon="3.44438">
        <ele>1066</ele>
      </trkpt>
      <trkpt lat="44.07349" lon="3.44374">
        <ele>1055</ele>
      </trkpt>
      <trkpt lat="44.07209" lon="3.44377">
        <ele>1033</ele>
      </trkpt>
      <trkpt lat="44.07218" lon="3.44405">
        <ele>1027</ele>
      </trkpt>
      <trkpt lat="44.07166" lon="3.44411">
        <ele>1013</ele>
      </trkpt>
      <trkpt lat="44.07079" lon="3.44387">
        <ele>999</ele>
      </trkpt>
      <trkpt lat="44.0694" lon="3.44375">
        <ele>973</ele>
      </trkpt>
      <trkpt lat="44.06881" lon="3.44396">
        <ele>955</ele>
      </trkpt>
      <trkpt lat="44.06827" lon="3.44432">
        <ele>943</ele>
      </trkpt>
      <trkpt lat="44.06822" lon="3.44504">
        <ele>933</ele>
      </trkpt>
      <trkpt lat="44.06778" lon="3.44546">
        <ele>921</ele>
      </trkpt>
      <trkpt lat="44.06711" lon="3.44526">
        <ele>912</ele>
      </trkpt>
      <trkpt lat="44.06596" lon="3.4458">
        <ele>900</ele>
      </trkpt>
      <trkpt lat="44.06515" lon="3.44629">
        <ele>895</ele>
      </trkpt>
      <trkpt lat="44.06572" lon="3.44606">
        <ele>899</ele>
      </trkpt>
      <trkpt lat="44.06659" lon="3.44636">
        <ele>901</ele>
      </trkpt>
      <trkpt lat="44.06743" lon="3.44632">
        <ele>911</ele>
      </trkpt>
      <trkpt lat="44.06856" lon="3.44718">
        <ele>912</ele>
      </trkpt>
      <trkpt lat="44.06855" lon="3.44821">
        <ele>910</ele>
      </trkpt>
      <trkpt lat="44.07011" lon="3.44967">
        <ele>905</ele>
      </trkpt>
      <trkpt lat="44.07162" lon="3.44945">
        <ele>938</ele>
      </trkpt>
      <trkpt lat="44.07137" lon="3.45004">
        <ele>947</ele>
      </trkpt>
      <trkpt lat="44.07089" lon="3.45041">
        <ele>939</ele>
      </trkpt>
      <trkpt lat="44.07064" lon="3.4509">
        <ele>936</ele>
      </trkpt>
      <trkpt lat="44.0698" lon="3.45144">
        <ele>924</ele>
      </trkpt>
      <trkpt lat="44.06984" lon="3.45201">
        <ele>915</ele>
      </trkpt>
      <trkpt lat="44.07173" lon="3.45189">
        <ele>944</ele>
      </trkpt>
      <trkpt lat="44.07192" lon="3.45273">
        <ele>954</ele>
      </trkpt>
      <trkpt lat="44.07117" lon="3.45415">
        <ele>956</ele>
      </trkpt>
      <trkpt lat="44.07049" lon="3.45632">
        <ele>966</ele>
      </trkpt>
      <trkpt lat="44.07004" lon="3.4569">
        <ele>970</ele>
      </trkpt>
      <trkpt lat="44.06889" lon="3.45666">
        <ele>960</ele>
      </trkpt>
      <trkpt lat="44.06705" lon="3.45887">
        <ele>974</ele>
      </trkpt>
      <trkpt lat="44.06709" lon="3.4619">
        <ele>966</ele>
      </trkpt>
      <trkpt lat="44.06772" lon="3.46185">
        <ele>976</ele>
      </trkpt>
      <trkpt lat="44.06787" lon="3.46219">
        <ele>967</ele>
      </trkpt>
      <trkpt lat="44.0685" lon="3.46252">
        <ele>983</ele>
      </trkpt>
      <trkpt lat="44.06856" lon="3.46308">
        <ele>982</ele>
      </trkpt>
      <trkpt lat="44.06844" lon="3.46373">
        <ele>974</ele>
      </trkpt>
      <trkpt lat="44.06848" lon="3.4642">
        <ele>973</ele>
      </trkpt>
      <trkpt lat="44.06894" lon="3.46499">
        <ele>974</ele>
      </trkpt>
      <trkpt lat="44.06894" lon="3.46536">
        <ele>966</ele>
      </trkpt>
      <trkpt lat="44.06941" lon="3.46593">
        <ele>959</ele>
      </trkpt>
      <trkpt lat="44.06992" lon="3.46601">
        <ele>957</ele>
      </trkpt>
      <trkpt lat="44.07163" lon="3.46567">
        <ele>962</ele>
      </trkpt>
      <trkpt lat="44.0719" lon="3.46636">
        <ele>979</ele>
      </trkpt>
      <trkpt lat="44.07339" lon="3.4657">
        <ele>974</ele>
      </trkpt>
      <trkpt lat="44.07345" lon="3.46598">
        <ele>980</ele>
      </trkpt>
      <trkpt lat="44.07291" lon="3.46616">
        <ele>985</ele>
      </trkpt>
      <trkpt lat="44.07225" lon="3.4668">
        <ele>1001</ele>
      </trkpt>
      <trkpt lat="44.07135" lon="3.46725">
        <ele>1005</ele>
      </trkpt>
      <trkpt lat="44.07004" lon="3.46794">
        <ele>1011</ele>
      </trkpt>
      <trkpt lat="44.06891" lon="3.46826">
        <ele>1010</ele>
      </trkpt>
      <trkpt lat="44.06815" lon="3.46828">
        <ele>1009</ele>
      </trkpt>
      <trkpt lat="44.06778" lon="3.46843">
        <ele>1011</ele>
      </trkpt>
      <trkpt lat="44.06782" lon="3.46896">
        <ele>1015</ele>
      </trkpt>
      <trkpt lat="44.0682" lon="3.46937">
        <ele>1019</ele>
      </trkpt>
      <trkpt lat="44.0682" lon="3.46971">
        <ele>1023</ele>
      </trkpt>
      <trkpt lat="44.06849" lon="3.47">
        <ele>1028</ele>
      </trkpt>
      <trkpt lat="44.06938" lon="3.4703">
        <ele>1039</ele>
      </trkpt>
      <trkpt lat="44.06986" lon="3.47015">
        <ele>1046</ele>
      </trkpt>
      <trkpt lat="44.07009" lon="3.46978">
        <ele>1044</ele>
      </trkpt>
    </trkseg>
  </trk>
</gpx>